<?xml version="1.0" encoding="UTF-8" standalone="no" ?>
<gpx xmlns="http://www.topografix.com/GPX/1/1" xmlns:xsi="http://www.w3.org/2001/XMLSchema-instance" xsi:schemaLocation="http://www.topografix.com/GPX/1/1 http://www.topografix.com/GPX/1/1/gpx.xsd" version="1.1" creator="VisuGPX - https://www.visugpx.com">
  <metadata>
    <name>ampiac - La cureye - Ayssens - Castan</name>
    <desc><![CDATA[19 mars 2013 - 10 km]]></desc>
  </metadata>
  <trk>
    <name><![CDATA[19 mars 2013 15:47:12]]></name>
    <cmt><![CDATA[19 mars 2013 15:47:12]]></cmt>
    <trkseg>
      <trkpt lat="44.34636" lon="2.49072">
        <ele>539</ele>
        <time>2013-03-19T14:47:14Z</time>
      </trkpt>
      <trkpt lat="44.34636" lon="2.49101">
        <ele>563</ele>
        <time>2013-03-19T14:47:26Z</time>
      </trkpt>
      <trkpt lat="44.34633" lon="2.49106">
        <ele>570</ele>
        <time>2013-03-19T14:47:29Z</time>
      </trkpt>
      <trkpt lat="44.34629" lon="2.4911">
        <ele>563</ele>
        <time>2013-03-19T14:48:16Z</time>
      </trkpt>
      <trkpt lat="44.34636" lon="2.49095">
        <ele>556</ele>
        <time>2013-03-19T14:48:37Z</time>
      </trkpt>
      <trkpt lat="44.34638" lon="2.49082">
        <ele>555</ele>
        <time>2013-03-19T14:48:42Z</time>
      </trkpt>
      <trkpt lat="44.34639" lon="2.49069">
        <ele>553</ele>
        <time>2013-03-19T14:48:49Z</time>
      </trkpt>
      <trkpt lat="44.34639" lon="2.49056">
        <ele>553</ele>
        <time>2013-03-19T14:48:56Z</time>
      </trkpt>
      <trkpt lat="44.34638" lon="2.49042">
        <ele>553</ele>
        <time>2013-03-19T14:49:03Z</time>
      </trkpt>
      <trkpt lat="44.34639" lon="2.49027">
        <ele>552</ele>
        <time>2013-03-19T14:49:10Z</time>
      </trkpt>
      <trkpt lat="44.3464" lon="2.49019">
        <ele>552</ele>
        <time>2013-03-19T14:49:15Z</time>
      </trkpt>
      <trkpt lat="44.34641" lon="2.49009">
        <ele>552</ele>
        <time>2013-03-19T14:49:20Z</time>
      </trkpt>
      <trkpt lat="44.34641" lon="2.49003">
        <ele>551</ele>
        <time>2013-03-19T14:49:23Z</time>
      </trkpt>
      <trkpt lat="44.3464" lon="2.48995">
        <ele>550</ele>
        <time>2013-03-19T14:49:30Z</time>
      </trkpt>
      <trkpt lat="44.34638" lon="2.49008">
        <ele>549</ele>
        <time>2013-03-19T14:49:41Z</time>
      </trkpt>
      <trkpt lat="44.34635" lon="2.49021">
        <ele>548</ele>
        <time>2013-03-19T14:49:46Z</time>
      </trkpt>
      <trkpt lat="44.34635" lon="2.49034">
        <ele>549</ele>
        <time>2013-03-19T14:49:53Z</time>
      </trkpt>
      <trkpt lat="44.34631" lon="2.49046">
        <ele>549</ele>
        <time>2013-03-19T14:50:02Z</time>
      </trkpt>
      <trkpt lat="44.3463" lon="2.49059">
        <ele>548</ele>
        <time>2013-03-19T14:50:10Z</time>
      </trkpt>
      <trkpt lat="44.34625" lon="2.49071">
        <ele>545</ele>
        <time>2013-03-19T14:50:19Z</time>
      </trkpt>
      <trkpt lat="44.34618" lon="2.49081">
        <ele>545</ele>
        <time>2013-03-19T14:50:26Z</time>
      </trkpt>
      <trkpt lat="44.3461" lon="2.4909">
        <ele>543</ele>
        <time>2013-03-19T14:50:32Z</time>
      </trkpt>
      <trkpt lat="44.34604" lon="2.49101">
        <ele>540</ele>
        <time>2013-03-19T14:50:39Z</time>
      </trkpt>
      <trkpt lat="44.34599" lon="2.49112">
        <ele>535</ele>
        <time>2013-03-19T14:50:47Z</time>
      </trkpt>
      <trkpt lat="44.34595" lon="2.49124">
        <ele>533</ele>
        <time>2013-03-19T14:50:56Z</time>
      </trkpt>
      <trkpt lat="44.34592" lon="2.49136">
        <ele>533</ele>
        <time>2013-03-19T14:51:02Z</time>
      </trkpt>
      <trkpt lat="44.34588" lon="2.4915">
        <ele>536</ele>
        <time>2013-03-19T14:51:10Z</time>
      </trkpt>
      <trkpt lat="44.34588" lon="2.49165">
        <ele>539</ele>
        <time>2013-03-19T14:51:16Z</time>
      </trkpt>
      <trkpt lat="44.34584" lon="2.49176">
        <ele>541</ele>
        <time>2013-03-19T14:51:23Z</time>
      </trkpt>
      <trkpt lat="44.34579" lon="2.49179">
        <ele>543</ele>
        <time>2013-03-19T14:51:27Z</time>
      </trkpt>
      <trkpt lat="44.34571" lon="2.49184">
        <ele>545</ele>
        <time>2013-03-19T14:51:34Z</time>
      </trkpt>
      <trkpt lat="44.34566" lon="2.49188">
        <ele>545</ele>
        <time>2013-03-19T14:51:38Z</time>
      </trkpt>
      <trkpt lat="44.34557" lon="2.49191">
        <ele>542</ele>
        <time>2013-03-19T14:51:46Z</time>
      </trkpt>
      <trkpt lat="44.34553" lon="2.49201">
        <ele>542</ele>
        <time>2013-03-19T14:51:54Z</time>
      </trkpt>
      <trkpt lat="44.34548" lon="2.49207">
        <ele>542</ele>
        <time>2013-03-19T14:52:01Z</time>
      </trkpt>
      <trkpt lat="44.34543" lon="2.49207">
        <ele>541</ele>
        <time>2013-03-19T14:52:04Z</time>
      </trkpt>
      <trkpt lat="44.34538" lon="2.49209">
        <ele>540</ele>
        <time>2013-03-19T14:52:08Z</time>
      </trkpt>
      <trkpt lat="44.34532" lon="2.49205">
        <ele>536</ele>
        <time>2013-03-19T14:52:23Z</time>
      </trkpt>
      <trkpt lat="44.34523" lon="2.49206">
        <ele>534</ele>
        <time>2013-03-19T14:52:57Z</time>
      </trkpt>
      <trkpt lat="44.34514" lon="2.492">
        <ele>534</ele>
        <time>2013-03-19T14:53:05Z</time>
      </trkpt>
      <trkpt lat="44.34508" lon="2.49193">
        <ele>531</ele>
        <time>2013-03-19T14:53:23Z</time>
      </trkpt>
      <trkpt lat="44.34498" lon="2.49202">
        <ele>532</ele>
        <time>2013-03-19T14:53:38Z</time>
      </trkpt>
      <trkpt lat="44.34493" lon="2.49214">
        <ele>533</ele>
        <time>2013-03-19T14:53:47Z</time>
      </trkpt>
      <trkpt lat="44.34494" lon="2.49228">
        <ele>533</ele>
        <time>2013-03-19T14:53:55Z</time>
      </trkpt>
      <trkpt lat="44.34491" lon="2.49242">
        <ele>532</ele>
        <time>2013-03-19T14:54:04Z</time>
      </trkpt>
      <trkpt lat="44.34486" lon="2.49254">
        <ele>532</ele>
        <time>2013-03-19T14:54:12Z</time>
      </trkpt>
      <trkpt lat="44.34479" lon="2.49264">
        <ele>531</ele>
        <time>2013-03-19T14:54:20Z</time>
      </trkpt>
      <trkpt lat="44.34472" lon="2.49273">
        <ele>529</ele>
        <time>2013-03-19T14:54:29Z</time>
      </trkpt>
      <trkpt lat="44.34464" lon="2.49282">
        <ele>529</ele>
        <time>2013-03-19T14:54:35Z</time>
      </trkpt>
      <trkpt lat="44.34457" lon="2.49293">
        <ele>528</ele>
        <time>2013-03-19T14:54:43Z</time>
      </trkpt>
      <trkpt lat="44.3445" lon="2.49302">
        <ele>527</ele>
        <time>2013-03-19T14:54:49Z</time>
      </trkpt>
      <trkpt lat="44.34444" lon="2.49313">
        <ele>527</ele>
        <time>2013-03-19T14:54:57Z</time>
      </trkpt>
      <trkpt lat="44.34437" lon="2.49325">
        <ele>526</ele>
        <time>2013-03-19T14:55:06Z</time>
      </trkpt>
      <trkpt lat="44.34431" lon="2.49334">
        <ele>525</ele>
        <time>2013-03-19T14:55:12Z</time>
      </trkpt>
      <trkpt lat="44.34427" lon="2.49346">
        <ele>524</ele>
        <time>2013-03-19T14:55:19Z</time>
      </trkpt>
      <trkpt lat="44.3442" lon="2.49358">
        <ele>524</ele>
        <time>2013-03-19T14:55:27Z</time>
      </trkpt>
      <trkpt lat="44.34411" lon="2.49363">
        <ele>523</ele>
        <time>2013-03-19T14:55:35Z</time>
      </trkpt>
      <trkpt lat="44.34405" lon="2.49374">
        <ele>522</ele>
        <time>2013-03-19T14:55:44Z</time>
      </trkpt>
      <trkpt lat="44.34403" lon="2.49387">
        <ele>521</ele>
        <time>2013-03-19T14:55:52Z</time>
      </trkpt>
      <trkpt lat="44.34397" lon="2.49397">
        <ele>520</ele>
        <time>2013-03-19T14:56:00Z</time>
      </trkpt>
      <trkpt lat="44.34391" lon="2.49408">
        <ele>519</ele>
        <time>2013-03-19T14:56:07Z</time>
      </trkpt>
      <trkpt lat="44.34384" lon="2.49419">
        <ele>520</ele>
        <time>2013-03-19T14:56:15Z</time>
      </trkpt>
      <trkpt lat="44.34377" lon="2.49428">
        <ele>520</ele>
        <time>2013-03-19T14:56:23Z</time>
      </trkpt>
      <trkpt lat="44.3437" lon="2.49438">
        <ele>520</ele>
        <time>2013-03-19T14:56:29Z</time>
      </trkpt>
      <trkpt lat="44.34365" lon="2.49448">
        <ele>520</ele>
        <time>2013-03-19T14:56:37Z</time>
      </trkpt>
      <trkpt lat="44.34358" lon="2.49457">
        <ele>521</ele>
        <time>2013-03-19T14:56:45Z</time>
      </trkpt>
      <trkpt lat="44.34351" lon="2.49465">
        <ele>523</ele>
        <time>2013-03-19T14:56:52Z</time>
      </trkpt>
      <trkpt lat="44.34342" lon="2.49468">
        <ele>526</ele>
        <time>2013-03-19T14:57:01Z</time>
      </trkpt>
      <trkpt lat="44.34332" lon="2.49471">
        <ele>525</ele>
        <time>2013-03-19T14:57:08Z</time>
      </trkpt>
      <trkpt lat="44.34322" lon="2.49474">
        <ele>524</ele>
        <time>2013-03-19T14:57:15Z</time>
      </trkpt>
      <trkpt lat="44.34313" lon="2.49475">
        <ele>522</ele>
        <time>2013-03-19T14:57:23Z</time>
      </trkpt>
      <trkpt lat="44.34302" lon="2.49476">
        <ele>521</ele>
        <time>2013-03-19T14:57:30Z</time>
      </trkpt>
      <trkpt lat="44.3429" lon="2.49467">
        <ele>520</ele>
        <time>2013-03-19T14:57:49Z</time>
      </trkpt>
      <trkpt lat="44.34281" lon="2.49469">
        <ele>519</ele>
        <time>2013-03-19T14:57:55Z</time>
      </trkpt>
      <trkpt lat="44.3427" lon="2.49469">
        <ele>516</ele>
        <time>2013-03-19T14:58:02Z</time>
      </trkpt>
      <trkpt lat="44.34261" lon="2.49467">
        <ele>516</ele>
        <time>2013-03-19T14:58:10Z</time>
      </trkpt>
      <trkpt lat="44.34251" lon="2.49467">
        <ele>516</ele>
        <time>2013-03-19T14:58:17Z</time>
      </trkpt>
      <trkpt lat="44.34246" lon="2.49466">
        <ele>517</ele>
        <time>2013-03-19T14:58:21Z</time>
      </trkpt>
      <trkpt lat="44.34237" lon="2.49464">
        <ele>518</ele>
        <time>2013-03-19T14:58:28Z</time>
      </trkpt>
      <trkpt lat="44.34232" lon="2.49464">
        <ele>518</ele>
        <time>2013-03-19T14:58:31Z</time>
      </trkpt>
      <trkpt lat="44.34227" lon="2.49463">
        <ele>518</ele>
        <time>2013-03-19T14:58:35Z</time>
      </trkpt>
      <trkpt lat="44.34219" lon="2.49461">
        <ele>518</ele>
        <time>2013-03-19T14:58:41Z</time>
      </trkpt>
      <trkpt lat="44.34217" lon="2.49453">
        <ele>517</ele>
        <time>2013-03-19T14:58:55Z</time>
      </trkpt>
      <trkpt lat="44.34207" lon="2.49453">
        <ele>517</ele>
        <time>2013-03-19T14:59:09Z</time>
      </trkpt>
      <trkpt lat="44.34198" lon="2.49452">
        <ele>517</ele>
        <time>2013-03-19T14:59:16Z</time>
      </trkpt>
      <trkpt lat="44.34188" lon="2.49451">
        <ele>517</ele>
        <time>2013-03-19T14:59:23Z</time>
      </trkpt>
      <trkpt lat="44.34183" lon="2.49451">
        <ele>516</ele>
        <time>2013-03-19T14:59:26Z</time>
      </trkpt>
      <trkpt lat="44.34178" lon="2.49454">
        <ele>516</ele>
        <time>2013-03-19T14:59:29Z</time>
      </trkpt>
      <trkpt lat="44.34173" lon="2.49453">
        <ele>514</ele>
        <time>2013-03-19T14:59:33Z</time>
      </trkpt>
      <trkpt lat="44.34164" lon="2.49459">
        <ele>514</ele>
        <time>2013-03-19T14:59:39Z</time>
      </trkpt>
      <trkpt lat="44.34155" lon="2.49465">
        <ele>516</ele>
        <time>2013-03-19T14:59:45Z</time>
      </trkpt>
      <trkpt lat="44.34146" lon="2.4947">
        <ele>517</ele>
        <time>2013-03-19T14:59:53Z</time>
      </trkpt>
      <trkpt lat="44.34137" lon="2.49474">
        <ele>515</ele>
        <time>2013-03-19T15:00:01Z</time>
      </trkpt>
      <trkpt lat="44.34128" lon="2.49477">
        <ele>516</ele>
        <time>2013-03-19T15:00:07Z</time>
      </trkpt>
      <trkpt lat="44.34119" lon="2.49476">
        <ele>517</ele>
        <time>2013-03-19T15:00:15Z</time>
      </trkpt>
      <trkpt lat="44.34109" lon="2.49478">
        <ele>518</ele>
        <time>2013-03-19T15:00:22Z</time>
      </trkpt>
      <trkpt lat="44.34101" lon="2.49485">
        <ele>518</ele>
        <time>2013-03-19T15:00:29Z</time>
      </trkpt>
      <trkpt lat="44.34092" lon="2.49493">
        <ele>519</ele>
        <time>2013-03-19T15:00:38Z</time>
      </trkpt>
      <trkpt lat="44.34083" lon="2.49495">
        <ele>517</ele>
        <time>2013-03-19T15:00:47Z</time>
      </trkpt>
      <trkpt lat="44.34074" lon="2.495">
        <ele>514</ele>
        <time>2013-03-19T15:00:54Z</time>
      </trkpt>
      <trkpt lat="44.34065" lon="2.49505">
        <ele>511</ele>
        <time>2013-03-19T15:01:00Z</time>
      </trkpt>
      <trkpt lat="44.34057" lon="2.4951">
        <ele>508</ele>
        <time>2013-03-19T15:01:08Z</time>
      </trkpt>
      <trkpt lat="44.34047" lon="2.49514">
        <ele>504</ele>
        <time>2013-03-19T15:01:16Z</time>
      </trkpt>
      <trkpt lat="44.34039" lon="2.49521">
        <ele>503</ele>
        <time>2013-03-19T15:01:21Z</time>
      </trkpt>
      <trkpt lat="44.3403" lon="2.49524">
        <ele>504</ele>
        <time>2013-03-19T15:01:28Z</time>
      </trkpt>
      <trkpt lat="44.3402" lon="2.49528">
        <ele>505</ele>
        <time>2013-03-19T15:01:35Z</time>
      </trkpt>
      <trkpt lat="44.34011" lon="2.49532">
        <ele>505</ele>
        <time>2013-03-19T15:01:46Z</time>
      </trkpt>
      <trkpt lat="44.34003" lon="2.49536">
        <ele>506</ele>
        <time>2013-03-19T15:01:53Z</time>
      </trkpt>
      <trkpt lat="44.33994" lon="2.49541">
        <ele>504</ele>
        <time>2013-03-19T15:02:00Z</time>
      </trkpt>
      <trkpt lat="44.3399" lon="2.49544">
        <ele>502</ele>
        <time>2013-03-19T15:02:03Z</time>
      </trkpt>
      <trkpt lat="44.33986" lon="2.49546">
        <ele>501</ele>
        <time>2013-03-19T15:02:06Z</time>
      </trkpt>
      <trkpt lat="44.33977" lon="2.4955">
        <ele>499</ele>
        <time>2013-03-19T15:02:11Z</time>
      </trkpt>
      <trkpt lat="44.33969" lon="2.49555">
        <ele>499</ele>
        <time>2013-03-19T15:02:18Z</time>
      </trkpt>
      <trkpt lat="44.3396" lon="2.49558">
        <ele>498</ele>
        <time>2013-03-19T15:02:26Z</time>
      </trkpt>
      <trkpt lat="44.3395" lon="2.49561">
        <ele>499</ele>
        <time>2013-03-19T15:02:34Z</time>
      </trkpt>
      <trkpt lat="44.33941" lon="2.49565">
        <ele>500</ele>
        <time>2013-03-19T15:02:41Z</time>
      </trkpt>
      <trkpt lat="44.33931" lon="2.4957">
        <ele>498</ele>
        <time>2013-03-19T15:02:48Z</time>
      </trkpt>
      <trkpt lat="44.33922" lon="2.49575">
        <ele>497</ele>
        <time>2013-03-19T15:02:54Z</time>
      </trkpt>
      <trkpt lat="44.33913" lon="2.4957">
        <ele>498</ele>
        <time>2013-03-19T15:03:03Z</time>
      </trkpt>
      <trkpt lat="44.33908" lon="2.49557">
        <ele>496</ele>
        <time>2013-03-19T15:03:08Z</time>
      </trkpt>
      <trkpt lat="44.339" lon="2.4955">
        <ele>496</ele>
        <time>2013-03-19T15:03:13Z</time>
      </trkpt>
      <trkpt lat="44.33892" lon="2.49542">
        <ele>496</ele>
        <time>2013-03-19T15:03:19Z</time>
      </trkpt>
      <trkpt lat="44.33888" lon="2.49534">
        <ele>496</ele>
        <time>2013-03-19T15:03:25Z</time>
      </trkpt>
      <trkpt lat="44.33883" lon="2.49527">
        <ele>496</ele>
        <time>2013-03-19T15:03:30Z</time>
      </trkpt>
      <trkpt lat="44.33878" lon="2.4952">
        <ele>496</ele>
        <time>2013-03-19T15:03:33Z</time>
      </trkpt>
      <trkpt lat="44.33875" lon="2.49515">
        <ele>495</ele>
        <time>2013-03-19T15:03:35Z</time>
      </trkpt>
      <trkpt lat="44.33867" lon="2.49504">
        <ele>495</ele>
        <time>2013-03-19T15:03:39Z</time>
      </trkpt>
      <trkpt lat="44.33861" lon="2.49494">
        <ele>495</ele>
        <time>2013-03-19T15:03:43Z</time>
      </trkpt>
      <trkpt lat="44.33853" lon="2.49484">
        <ele>495</ele>
        <time>2013-03-19T15:03:47Z</time>
      </trkpt>
      <trkpt lat="44.33847" lon="2.49475">
        <ele>494</ele>
        <time>2013-03-19T15:03:50Z</time>
      </trkpt>
      <trkpt lat="44.33844" lon="2.49469">
        <ele>493</ele>
        <time>2013-03-19T15:03:52Z</time>
      </trkpt>
      <trkpt lat="44.3384" lon="2.49464">
        <ele>492</ele>
        <time>2013-03-19T15:03:54Z</time>
      </trkpt>
      <trkpt lat="44.33834" lon="2.49455">
        <ele>491</ele>
        <time>2013-03-19T15:03:57Z</time>
      </trkpt>
      <trkpt lat="44.3383" lon="2.49449">
        <ele>490</ele>
        <time>2013-03-19T15:04:00Z</time>
      </trkpt>
      <trkpt lat="44.33827" lon="2.49444">
        <ele>489</ele>
        <time>2013-03-19T15:04:03Z</time>
      </trkpt>
      <trkpt lat="44.33821" lon="2.49434">
        <ele>489</ele>
        <time>2013-03-19T15:04:09Z</time>
      </trkpt>
      <trkpt lat="44.33814" lon="2.49424">
        <ele>490</ele>
        <time>2013-03-19T15:04:15Z</time>
      </trkpt>
      <trkpt lat="44.33808" lon="2.49414">
        <ele>490</ele>
        <time>2013-03-19T15:04:21Z</time>
      </trkpt>
      <trkpt lat="44.33803" lon="2.49403">
        <ele>490</ele>
        <time>2013-03-19T15:04:27Z</time>
      </trkpt>
      <trkpt lat="44.33798" lon="2.49392">
        <ele>492</ele>
        <time>2013-03-19T15:04:35Z</time>
      </trkpt>
      <trkpt lat="44.33792" lon="2.49385">
        <ele>492</ele>
        <time>2013-03-19T15:04:43Z</time>
      </trkpt>
      <trkpt lat="44.33788" lon="2.49381">
        <ele>491</ele>
        <time>2013-03-19T15:04:47Z</time>
      </trkpt>
      <trkpt lat="44.33784" lon="2.49375">
        <ele>490</ele>
        <time>2013-03-19T15:04:51Z</time>
      </trkpt>
      <trkpt lat="44.33781" lon="2.49369">
        <ele>489</ele>
        <time>2013-03-19T15:04:55Z</time>
      </trkpt>
      <trkpt lat="44.33775" lon="2.49359">
        <ele>488</ele>
        <time>2013-03-19T15:05:02Z</time>
      </trkpt>
      <trkpt lat="44.33772" lon="2.49353">
        <ele>490</ele>
        <time>2013-03-19T15:05:06Z</time>
      </trkpt>
      <trkpt lat="44.33766" lon="2.49341">
        <ele>492</ele>
        <time>2013-03-19T15:05:14Z</time>
      </trkpt>
      <trkpt lat="44.33769" lon="2.49329">
        <ele>495</ele>
        <time>2013-03-19T15:05:22Z</time>
      </trkpt>
      <trkpt lat="44.33772" lon="2.49314">
        <ele>497</ele>
        <time>2013-03-19T15:05:31Z</time>
      </trkpt>
      <trkpt lat="44.33772" lon="2.49301">
        <ele>499</ele>
        <time>2013-03-19T15:05:37Z</time>
      </trkpt>
      <trkpt lat="44.33777" lon="2.4929">
        <ele>498</ele>
        <time>2013-03-19T15:05:43Z</time>
      </trkpt>
      <trkpt lat="44.33783" lon="2.49278">
        <ele>498</ele>
        <time>2013-03-19T15:05:50Z</time>
      </trkpt>
      <trkpt lat="44.33787" lon="2.49266">
        <ele>498</ele>
        <time>2013-03-19T15:05:57Z</time>
      </trkpt>
      <trkpt lat="44.33795" lon="2.49257">
        <ele>497</ele>
        <time>2013-03-19T15:06:09Z</time>
      </trkpt>
      <trkpt lat="44.33803" lon="2.49249">
        <ele>497</ele>
        <time>2013-03-19T15:06:17Z</time>
      </trkpt>
      <trkpt lat="44.33812" lon="2.49242">
        <ele>496</ele>
        <time>2013-03-19T15:06:24Z</time>
      </trkpt>
      <trkpt lat="44.33817" lon="2.49237">
        <ele>497</ele>
        <time>2013-03-19T15:06:29Z</time>
      </trkpt>
      <trkpt lat="44.33817" lon="2.49223">
        <ele>496</ele>
        <time>2013-03-19T15:06:37Z</time>
      </trkpt>
      <trkpt lat="44.33818" lon="2.49208">
        <ele>498</ele>
        <time>2013-03-19T15:06:56Z</time>
      </trkpt>
      <trkpt lat="44.33821" lon="2.49202">
        <ele>498</ele>
        <time>2013-03-19T15:06:59Z</time>
      </trkpt>
      <trkpt lat="44.33828" lon="2.49192">
        <ele>499</ele>
        <time>2013-03-19T15:07:06Z</time>
      </trkpt>
      <trkpt lat="44.33836" lon="2.49184">
        <ele>501</ele>
        <time>2013-03-19T15:07:14Z</time>
      </trkpt>
      <trkpt lat="44.33844" lon="2.49177">
        <ele>503</ele>
        <time>2013-03-19T15:07:23Z</time>
      </trkpt>
      <trkpt lat="44.33841" lon="2.49171">
        <ele>503</ele>
        <time>2013-03-19T15:07:30Z</time>
      </trkpt>
      <trkpt lat="44.33832" lon="2.49174">
        <ele>501</ele>
        <time>2013-03-19T15:07:38Z</time>
      </trkpt>
      <trkpt lat="44.33824" lon="2.49179">
        <ele>499</ele>
        <time>2013-03-19T15:07:44Z</time>
      </trkpt>
      <trkpt lat="44.33816" lon="2.49184">
        <ele>499</ele>
        <time>2013-03-19T15:07:52Z</time>
      </trkpt>
      <trkpt lat="44.33807" lon="2.49187">
        <ele>498</ele>
        <time>2013-03-19T15:07:59Z</time>
      </trkpt>
      <trkpt lat="44.33797" lon="2.4919">
        <ele>496</ele>
        <time>2013-03-19T15:08:08Z</time>
      </trkpt>
      <trkpt lat="44.33788" lon="2.49196">
        <ele>496</ele>
        <time>2013-03-19T15:08:14Z</time>
      </trkpt>
      <trkpt lat="44.33778" lon="2.492">
        <ele>496</ele>
        <time>2013-03-19T15:08:20Z</time>
      </trkpt>
      <trkpt lat="44.33769" lon="2.49206">
        <ele>494</ele>
        <time>2013-03-19T15:08:26Z</time>
      </trkpt>
      <trkpt lat="44.33759" lon="2.4921">
        <ele>495</ele>
        <time>2013-03-19T15:08:33Z</time>
      </trkpt>
      <trkpt lat="44.3375" lon="2.49213">
        <ele>494</ele>
        <time>2013-03-19T15:08:39Z</time>
      </trkpt>
      <trkpt lat="44.33741" lon="2.49214">
        <ele>492</ele>
        <time>2013-03-19T15:08:46Z</time>
      </trkpt>
      <trkpt lat="44.33734" lon="2.49225">
        <ele>489</ele>
        <time>2013-03-19T15:08:57Z</time>
      </trkpt>
      <trkpt lat="44.33727" lon="2.49236">
        <ele>487</ele>
        <time>2013-03-19T15:09:03Z</time>
      </trkpt>
      <trkpt lat="44.33718" lon="2.49242">
        <ele>485</ele>
        <time>2013-03-19T15:09:12Z</time>
      </trkpt>
      <trkpt lat="44.3371" lon="2.4925">
        <ele>484</ele>
        <time>2013-03-19T15:09:18Z</time>
      </trkpt>
      <trkpt lat="44.33701" lon="2.49254">
        <ele>484</ele>
        <time>2013-03-19T15:09:23Z</time>
      </trkpt>
      <trkpt lat="44.33693" lon="2.49262">
        <ele>485</ele>
        <time>2013-03-19T15:09:30Z</time>
      </trkpt>
      <trkpt lat="44.33685" lon="2.49269">
        <ele>482</ele>
        <time>2013-03-19T15:09:39Z</time>
      </trkpt>
      <trkpt lat="44.33676" lon="2.49276">
        <ele>482</ele>
        <time>2013-03-19T15:09:47Z</time>
      </trkpt>
      <trkpt lat="44.33669" lon="2.49289">
        <ele>482</ele>
        <time>2013-03-19T15:09:50Z</time>
      </trkpt>
      <trkpt lat="44.33663" lon="2.49299">
        <ele>483</ele>
        <time>2013-03-19T15:09:52Z</time>
      </trkpt>
      <trkpt lat="44.33653" lon="2.49311">
        <ele>483</ele>
        <time>2013-03-19T15:09:55Z</time>
      </trkpt>
      <trkpt lat="44.33645" lon="2.4932">
        <ele>484</ele>
        <time>2013-03-19T15:09:57Z</time>
      </trkpt>
      <trkpt lat="44.33636" lon="2.49327">
        <ele>485</ele>
        <time>2013-03-19T15:09:59Z</time>
      </trkpt>
      <trkpt lat="44.33627" lon="2.49331">
        <ele>485</ele>
        <time>2013-03-19T15:10:01Z</time>
      </trkpt>
      <trkpt lat="44.33617" lon="2.49335">
        <ele>486</ele>
        <time>2013-03-19T15:10:03Z</time>
      </trkpt>
      <trkpt lat="44.33608" lon="2.49337">
        <ele>486</ele>
        <time>2013-03-19T15:10:05Z</time>
      </trkpt>
      <trkpt lat="44.33594" lon="2.49341">
        <ele>485</ele>
        <time>2013-03-19T15:10:08Z</time>
      </trkpt>
      <trkpt lat="44.33585" lon="2.49344">
        <ele>483</ele>
        <time>2013-03-19T15:10:10Z</time>
      </trkpt>
      <trkpt lat="44.33574" lon="2.4935">
        <ele>482</ele>
        <time>2013-03-19T15:10:13Z</time>
      </trkpt>
      <trkpt lat="44.33562" lon="2.49355">
        <ele>481</ele>
        <time>2013-03-19T15:10:16Z</time>
      </trkpt>
      <trkpt lat="44.33551" lon="2.49361">
        <ele>480</ele>
        <time>2013-03-19T15:10:18Z</time>
      </trkpt>
      <trkpt lat="44.3354" lon="2.49367">
        <ele>479</ele>
        <time>2013-03-19T15:10:20Z</time>
      </trkpt>
      <trkpt lat="44.33531" lon="2.49371">
        <ele>478</ele>
        <time>2013-03-19T15:10:22Z</time>
      </trkpt>
      <trkpt lat="44.33519" lon="2.49376">
        <ele>477</ele>
        <time>2013-03-19T15:10:25Z</time>
      </trkpt>
      <trkpt lat="44.33509" lon="2.49383">
        <ele>476</ele>
        <time>2013-03-19T15:10:27Z</time>
      </trkpt>
      <trkpt lat="44.33499" lon="2.49386">
        <ele>476</ele>
        <time>2013-03-19T15:10:29Z</time>
      </trkpt>
      <trkpt lat="44.33488" lon="2.4939">
        <ele>476</ele>
        <time>2013-03-19T15:10:31Z</time>
      </trkpt>
      <trkpt lat="44.33477" lon="2.49393">
        <ele>476</ele>
        <time>2013-03-19T15:10:33Z</time>
      </trkpt>
      <trkpt lat="44.33466" lon="2.49395">
        <ele>476</ele>
        <time>2013-03-19T15:10:35Z</time>
      </trkpt>
      <trkpt lat="44.33453" lon="2.49399">
        <ele>476</ele>
        <time>2013-03-19T15:10:38Z</time>
      </trkpt>
      <trkpt lat="44.3344" lon="2.49402">
        <ele>476</ele>
        <time>2013-03-19T15:10:41Z</time>
      </trkpt>
      <trkpt lat="44.33429" lon="2.49406">
        <ele>476</ele>
        <time>2013-03-19T15:10:44Z</time>
      </trkpt>
      <trkpt lat="44.3342" lon="2.49408">
        <ele>477</ele>
        <time>2013-03-19T15:10:48Z</time>
      </trkpt>
      <trkpt lat="44.33409" lon="2.49409">
        <ele>478</ele>
        <time>2013-03-19T15:10:52Z</time>
      </trkpt>
      <trkpt lat="44.33398" lon="2.49413">
        <ele>478</ele>
        <time>2013-03-19T15:10:55Z</time>
      </trkpt>
      <trkpt lat="44.33387" lon="2.49416">
        <ele>479</ele>
        <time>2013-03-19T15:10:58Z</time>
      </trkpt>
      <trkpt lat="44.33376" lon="2.49422">
        <ele>479</ele>
        <time>2013-03-19T15:11:01Z</time>
      </trkpt>
      <trkpt lat="44.33364" lon="2.4943">
        <ele>480</ele>
        <time>2013-03-19T15:11:04Z</time>
      </trkpt>
      <trkpt lat="44.33355" lon="2.49437">
        <ele>480</ele>
        <time>2013-03-19T15:11:06Z</time>
      </trkpt>
      <trkpt lat="44.33345" lon="2.49443">
        <ele>481</ele>
        <time>2013-03-19T15:11:08Z</time>
      </trkpt>
      <trkpt lat="44.33333" lon="2.49446">
        <ele>482</ele>
        <time>2013-03-19T15:11:10Z</time>
      </trkpt>
      <trkpt lat="44.33323" lon="2.49448">
        <ele>483</ele>
        <time>2013-03-19T15:11:12Z</time>
      </trkpt>
      <trkpt lat="44.33312" lon="2.4945">
        <ele>484</ele>
        <time>2013-03-19T15:11:14Z</time>
      </trkpt>
      <trkpt lat="44.33301" lon="2.49451">
        <ele>484</ele>
        <time>2013-03-19T15:11:16Z</time>
      </trkpt>
      <trkpt lat="44.33289" lon="2.49452">
        <ele>484</ele>
        <time>2013-03-19T15:11:19Z</time>
      </trkpt>
      <trkpt lat="44.3328" lon="2.49453">
        <ele>484</ele>
        <time>2013-03-19T15:11:22Z</time>
      </trkpt>
      <trkpt lat="44.33271" lon="2.49454">
        <ele>483</ele>
        <time>2013-03-19T15:11:25Z</time>
      </trkpt>
      <trkpt lat="44.33261" lon="2.49453">
        <ele>482</ele>
        <time>2013-03-19T15:11:28Z</time>
      </trkpt>
      <trkpt lat="44.3325" lon="2.49448">
        <ele>481</ele>
        <time>2013-03-19T15:11:32Z</time>
      </trkpt>
      <trkpt lat="44.3324" lon="2.49447">
        <ele>481</ele>
        <time>2013-03-19T15:11:36Z</time>
      </trkpt>
      <trkpt lat="44.33231" lon="2.49443">
        <ele>481</ele>
        <time>2013-03-19T15:11:41Z</time>
      </trkpt>
      <trkpt lat="44.33223" lon="2.49439">
        <ele>481</ele>
        <time>2013-03-19T15:11:46Z</time>
      </trkpt>
      <trkpt lat="44.33215" lon="2.49429">
        <ele>483</ele>
        <time>2013-03-19T15:11:53Z</time>
      </trkpt>
      <trkpt lat="44.33207" lon="2.49423">
        <ele>484</ele>
        <time>2013-03-19T15:11:58Z</time>
      </trkpt>
      <trkpt lat="44.33201" lon="2.49413">
        <ele>485</ele>
        <time>2013-03-19T15:12:03Z</time>
      </trkpt>
      <trkpt lat="44.33194" lon="2.49404">
        <ele>485</ele>
        <time>2013-03-19T15:12:10Z</time>
      </trkpt>
      <trkpt lat="44.33186" lon="2.49392">
        <ele>484</ele>
        <time>2013-03-19T15:12:19Z</time>
      </trkpt>
      <trkpt lat="44.3318" lon="2.49383">
        <ele>482</ele>
        <time>2013-03-19T15:12:27Z</time>
      </trkpt>
      <trkpt lat="44.33173" lon="2.49373">
        <ele>482</ele>
        <time>2013-03-19T15:12:35Z</time>
      </trkpt>
      <trkpt lat="44.33167" lon="2.49362">
        <ele>483</ele>
        <time>2013-03-19T15:12:42Z</time>
      </trkpt>
      <trkpt lat="44.33159" lon="2.4935">
        <ele>484</ele>
        <time>2013-03-19T15:12:56Z</time>
      </trkpt>
      <trkpt lat="44.33156" lon="2.49342">
        <ele>479</ele>
        <time>2013-03-19T15:14:38Z</time>
      </trkpt>
      <trkpt lat="44.3315" lon="2.49347">
        <ele>480</ele>
        <time>2013-03-19T15:14:56Z</time>
      </trkpt>
      <trkpt lat="44.33151" lon="2.49353">
        <ele>480</ele>
        <time>2013-03-19T15:15:16Z</time>
      </trkpt>
      <trkpt lat="44.33149" lon="2.49352">
        <ele>482</ele>
        <time>2013-03-19T15:16:55Z</time>
      </trkpt>
      <trkpt lat="44.33145" lon="2.49354">
        <ele>487</ele>
        <time>2013-03-19T15:25:21Z</time>
      </trkpt>
      <trkpt lat="44.33134" lon="2.49357">
        <ele>486</ele>
        <time>2013-03-19T15:25:42Z</time>
      </trkpt>
      <trkpt lat="44.33137" lon="2.49354">
        <ele>491</ele>
        <time>2013-03-19T15:26:35Z</time>
      </trkpt>
      <trkpt lat="44.33147" lon="2.4935">
        <ele>491</ele>
        <time>2013-03-19T15:26:48Z</time>
      </trkpt>
      <trkpt lat="44.33156" lon="2.49355">
        <ele>489</ele>
        <time>2013-03-19T15:26:58Z</time>
      </trkpt>
      <trkpt lat="44.33155" lon="2.49354">
        <ele>487</ele>
        <time>2013-03-19T15:27:08Z</time>
      </trkpt>
      <trkpt lat="44.3316" lon="2.49354">
        <ele>486</ele>
        <time>2013-03-19T15:27:36Z</time>
      </trkpt>
      <trkpt lat="44.33165" lon="2.49357">
        <ele>483</ele>
        <time>2013-03-19T15:28:12Z</time>
      </trkpt>
      <trkpt lat="44.33167" lon="2.49347">
        <ele>477</ele>
        <time>2013-03-19T15:29:25Z</time>
      </trkpt>
      <trkpt lat="44.33154" lon="2.49353">
        <ele>476</ele>
        <time>2013-03-19T15:29:42Z</time>
      </trkpt>
      <trkpt lat="44.33143" lon="2.49357">
        <ele>476</ele>
        <time>2013-03-19T15:29:52Z</time>
      </trkpt>
      <trkpt lat="44.33133" lon="2.49358">
        <ele>476</ele>
        <time>2013-03-19T15:29:55Z</time>
      </trkpt>
      <trkpt lat="44.33124" lon="2.49353">
        <ele>475</ele>
        <time>2013-03-19T15:30:01Z</time>
      </trkpt>
      <trkpt lat="44.33114" lon="2.49352">
        <ele>477</ele>
        <time>2013-03-19T15:30:09Z</time>
      </trkpt>
      <trkpt lat="44.33104" lon="2.4934">
        <ele>480</ele>
        <time>2013-03-19T15:30:27Z</time>
      </trkpt>
      <trkpt lat="44.33096" lon="2.49333">
        <ele>481</ele>
        <time>2013-03-19T15:30:32Z</time>
      </trkpt>
      <trkpt lat="44.33087" lon="2.49325">
        <ele>483</ele>
        <time>2013-03-19T15:30:38Z</time>
      </trkpt>
      <trkpt lat="44.33078" lon="2.49318">
        <ele>484</ele>
        <time>2013-03-19T15:30:44Z</time>
      </trkpt>
      <trkpt lat="44.33069" lon="2.49304">
        <ele>484</ele>
        <time>2013-03-19T15:31:08Z</time>
      </trkpt>
      <trkpt lat="44.33061" lon="2.49296">
        <ele>484</ele>
        <time>2013-03-19T15:31:12Z</time>
      </trkpt>
      <trkpt lat="44.33054" lon="2.49288">
        <ele>485</ele>
        <time>2013-03-19T15:31:18Z</time>
      </trkpt>
      <trkpt lat="44.33046" lon="2.49281">
        <ele>486</ele>
        <time>2013-03-19T15:31:24Z</time>
      </trkpt>
      <trkpt lat="44.33038" lon="2.49274">
        <ele>486</ele>
        <time>2013-03-19T15:31:30Z</time>
      </trkpt>
      <trkpt lat="44.33029" lon="2.49269">
        <ele>486</ele>
        <time>2013-03-19T15:31:38Z</time>
      </trkpt>
      <trkpt lat="44.33019" lon="2.49269">
        <ele>486</ele>
        <time>2013-03-19T15:31:45Z</time>
      </trkpt>
      <trkpt lat="44.33021" lon="2.49282">
        <ele>488</ele>
        <time>2013-03-19T15:31:53Z</time>
      </trkpt>
      <trkpt lat="44.33024" lon="2.49296">
        <ele>493</ele>
        <time>2013-03-19T15:32:06Z</time>
      </trkpt>
      <trkpt lat="44.33025" lon="2.49308">
        <ele>494</ele>
        <time>2013-03-19T15:32:14Z</time>
      </trkpt>
      <trkpt lat="44.33027" lon="2.49321">
        <ele>494</ele>
        <time>2013-03-19T15:32:22Z</time>
      </trkpt>
      <trkpt lat="44.33027" lon="2.49337">
        <ele>497</ele>
        <time>2013-03-19T15:32:31Z</time>
      </trkpt>
      <trkpt lat="44.33027" lon="2.49351">
        <ele>500</ele>
        <time>2013-03-19T15:32:42Z</time>
      </trkpt>
      <trkpt lat="44.33032" lon="2.49369">
        <ele>502</ele>
        <time>2013-03-19T15:32:54Z</time>
      </trkpt>
      <trkpt lat="44.33034" lon="2.49389">
        <ele>503</ele>
        <time>2013-03-19T15:33:05Z</time>
      </trkpt>
      <trkpt lat="44.33031" lon="2.49403">
        <ele>505</ele>
        <time>2013-03-19T15:33:19Z</time>
      </trkpt>
      <trkpt lat="44.33024" lon="2.49411">
        <ele>505</ele>
        <time>2013-03-19T15:33:25Z</time>
      </trkpt>
      <trkpt lat="44.33018" lon="2.49421">
        <ele>505</ele>
        <time>2013-03-19T15:33:32Z</time>
      </trkpt>
      <trkpt lat="44.33011" lon="2.49434">
        <ele>505</ele>
        <time>2013-03-19T15:33:40Z</time>
      </trkpt>
      <trkpt lat="44.33004" lon="2.49445">
        <ele>510</ele>
        <time>2013-03-19T15:33:49Z</time>
      </trkpt>
      <trkpt lat="44.32998" lon="2.49454">
        <ele>511</ele>
        <time>2013-03-19T15:33:54Z</time>
      </trkpt>
      <trkpt lat="44.32991" lon="2.49463">
        <ele>512</ele>
        <time>2013-03-19T15:34:00Z</time>
      </trkpt>
      <trkpt lat="44.32984" lon="2.49471">
        <ele>514</ele>
        <time>2013-03-19T15:34:09Z</time>
      </trkpt>
      <trkpt lat="44.32975" lon="2.49475">
        <ele>513</ele>
        <time>2013-03-19T15:34:17Z</time>
      </trkpt>
      <trkpt lat="44.32967" lon="2.49483">
        <ele>512</ele>
        <time>2013-03-19T15:34:23Z</time>
      </trkpt>
      <trkpt lat="44.3296" lon="2.49492">
        <ele>509</ele>
        <time>2013-03-19T15:34:32Z</time>
      </trkpt>
      <trkpt lat="44.3295" lon="2.49495">
        <ele>506</ele>
        <time>2013-03-19T15:34:41Z</time>
      </trkpt>
      <trkpt lat="44.32941" lon="2.49492">
        <ele>507</ele>
        <time>2013-03-19T15:34:51Z</time>
      </trkpt>
      <trkpt lat="44.32931" lon="2.49492">
        <ele>507</ele>
        <time>2013-03-19T15:34:59Z</time>
      </trkpt>
      <trkpt lat="44.32923" lon="2.49498">
        <ele>507</ele>
        <time>2013-03-19T15:35:06Z</time>
      </trkpt>
      <trkpt lat="44.32913" lon="2.49505">
        <ele>509</ele>
        <time>2013-03-19T15:35:15Z</time>
      </trkpt>
      <trkpt lat="44.32906" lon="2.49516">
        <ele>513</ele>
        <time>2013-03-19T15:35:22Z</time>
      </trkpt>
      <trkpt lat="44.32898" lon="2.49524">
        <ele>518</ele>
        <time>2013-03-19T15:35:29Z</time>
      </trkpt>
      <trkpt lat="44.32889" lon="2.4953">
        <ele>522</ele>
        <time>2013-03-19T15:35:40Z</time>
      </trkpt>
      <trkpt lat="44.32874" lon="2.49543">
        <ele>525</ele>
        <time>2013-03-19T15:35:54Z</time>
      </trkpt>
      <trkpt lat="44.32866" lon="2.49548">
        <ele>531</ele>
        <time>2013-03-19T15:36:03Z</time>
      </trkpt>
      <trkpt lat="44.32859" lon="2.49559">
        <ele>535</ele>
        <time>2013-03-19T15:36:12Z</time>
      </trkpt>
      <trkpt lat="44.32852" lon="2.4957">
        <ele>539</ele>
        <time>2013-03-19T15:36:18Z</time>
      </trkpt>
      <trkpt lat="44.32843" lon="2.49579">
        <ele>546</ele>
        <time>2013-03-19T15:36:27Z</time>
      </trkpt>
      <trkpt lat="44.32836" lon="2.49587">
        <ele>547</ele>
        <time>2013-03-19T15:36:32Z</time>
      </trkpt>
      <trkpt lat="44.32828" lon="2.49594">
        <ele>547</ele>
        <time>2013-03-19T15:36:41Z</time>
      </trkpt>
      <trkpt lat="44.32819" lon="2.49599">
        <ele>548</ele>
        <time>2013-03-19T15:36:50Z</time>
      </trkpt>
      <trkpt lat="44.32808" lon="2.49608">
        <ele>550</ele>
        <time>2013-03-19T15:37:02Z</time>
      </trkpt>
      <trkpt lat="44.32798" lon="2.4961">
        <ele>552</ele>
        <time>2013-03-19T15:37:14Z</time>
      </trkpt>
      <trkpt lat="44.3279" lon="2.49614">
        <ele>555</ele>
        <time>2013-03-19T15:37:22Z</time>
      </trkpt>
      <trkpt lat="44.32779" lon="2.49618">
        <ele>557</ele>
        <time>2013-03-19T15:37:30Z</time>
      </trkpt>
      <trkpt lat="44.32772" lon="2.49625">
        <ele>559</ele>
        <time>2013-03-19T15:37:43Z</time>
      </trkpt>
      <trkpt lat="44.32759" lon="2.49634">
        <ele>573</ele>
        <time>2013-03-19T15:38:20Z</time>
      </trkpt>
      <trkpt lat="44.32765" lon="2.49628">
        <ele>575</ele>
        <time>2013-03-19T15:40:00Z</time>
      </trkpt>
      <trkpt lat="44.32769" lon="2.49616">
        <ele>576</ele>
        <time>2013-03-19T15:40:08Z</time>
      </trkpt>
      <trkpt lat="44.32773" lon="2.49602">
        <ele>576</ele>
        <time>2013-03-19T15:40:18Z</time>
      </trkpt>
      <trkpt lat="44.32776" lon="2.49589">
        <ele>575</ele>
        <time>2013-03-19T15:40:26Z</time>
      </trkpt>
      <trkpt lat="44.32781" lon="2.49578">
        <ele>576</ele>
        <time>2013-03-19T15:40:33Z</time>
      </trkpt>
      <trkpt lat="44.32787" lon="2.49567">
        <ele>575</ele>
        <time>2013-03-19T15:40:40Z</time>
      </trkpt>
      <trkpt lat="44.32794" lon="2.49556">
        <ele>576</ele>
        <time>2013-03-19T15:40:47Z</time>
      </trkpt>
      <trkpt lat="44.328" lon="2.49545">
        <ele>577</ele>
        <time>2013-03-19T15:40:54Z</time>
      </trkpt>
      <trkpt lat="44.32854" lon="2.49523">
        <ele>579</ele>
        <time>2013-03-19T15:41:19Z</time>
      </trkpt>
      <trkpt lat="44.32846" lon="2.49515">
        <ele>581</ele>
        <time>2013-03-19T15:41:21Z</time>
      </trkpt>
      <trkpt lat="44.3285" lon="2.49495">
        <ele>594</ele>
        <time>2013-03-19T15:41:34Z</time>
      </trkpt>
      <trkpt lat="44.32851" lon="2.49481">
        <ele>597</ele>
        <time>2013-03-19T15:41:39Z</time>
      </trkpt>
      <trkpt lat="44.32849" lon="2.49467">
        <ele>598</ele>
        <time>2013-03-19T15:41:47Z</time>
      </trkpt>
      <trkpt lat="44.32855" lon="2.49453">
        <ele>599</ele>
        <time>2013-03-19T15:41:58Z</time>
      </trkpt>
      <trkpt lat="44.32862" lon="2.49443">
        <ele>600</ele>
        <time>2013-03-19T15:42:06Z</time>
      </trkpt>
      <trkpt lat="44.3287" lon="2.49435">
        <ele>602</ele>
        <time>2013-03-19T15:42:13Z</time>
      </trkpt>
      <trkpt lat="44.32874" lon="2.49419">
        <ele>603</ele>
        <time>2013-03-19T15:42:22Z</time>
      </trkpt>
      <trkpt lat="44.32876" lon="2.49405">
        <ele>602</ele>
        <time>2013-03-19T15:42:29Z</time>
      </trkpt>
      <trkpt lat="44.32874" lon="2.49392">
        <ele>602</ele>
        <time>2013-03-19T15:42:34Z</time>
      </trkpt>
      <trkpt lat="44.32874" lon="2.49379">
        <ele>603</ele>
        <time>2013-03-19T15:42:41Z</time>
      </trkpt>
      <trkpt lat="44.32871" lon="2.49365">
        <ele>604</ele>
        <time>2013-03-19T15:42:48Z</time>
      </trkpt>
      <trkpt lat="44.32868" lon="2.49353">
        <ele>605</ele>
        <time>2013-03-19T15:42:56Z</time>
      </trkpt>
      <trkpt lat="44.32866" lon="2.49347">
        <ele>607</ele>
        <time>2013-03-19T15:43:01Z</time>
      </trkpt>
      <trkpt lat="44.32864" lon="2.49341">
        <ele>607</ele>
        <time>2013-03-19T15:43:04Z</time>
      </trkpt>
      <trkpt lat="44.32861" lon="2.49338">
        <ele>610</ele>
        <time>2013-03-19T15:43:17Z</time>
      </trkpt>
      <trkpt lat="44.3286" lon="2.4932">
        <ele>608</ele>
        <time>2013-03-19T15:43:56Z</time>
      </trkpt>
      <trkpt lat="44.3286" lon="2.49306">
        <ele>607</ele>
        <time>2013-03-19T15:44:12Z</time>
      </trkpt>
      <trkpt lat="44.32859" lon="2.49293">
        <ele>603</ele>
        <time>2013-03-19T15:44:23Z</time>
      </trkpt>
      <trkpt lat="44.32854" lon="2.49281">
        <ele>600</ele>
        <time>2013-03-19T15:44:36Z</time>
      </trkpt>
      <trkpt lat="44.32853" lon="2.49274">
        <ele>598</ele>
        <time>2013-03-19T15:44:51Z</time>
      </trkpt>
      <trkpt lat="44.32849" lon="2.49269">
        <ele>600</ele>
        <time>2013-03-19T15:45:01Z</time>
      </trkpt>
      <trkpt lat="44.32843" lon="2.49257">
        <ele>602</ele>
        <time>2013-03-19T15:45:07Z</time>
      </trkpt>
      <trkpt lat="44.32836" lon="2.49249">
        <ele>601</ele>
        <time>2013-03-19T15:45:17Z</time>
      </trkpt>
      <trkpt lat="44.32828" lon="2.49241">
        <ele>601</ele>
        <time>2013-03-19T15:45:27Z</time>
      </trkpt>
      <trkpt lat="44.3282" lon="2.49237">
        <ele>599</ele>
        <time>2013-03-19T15:45:39Z</time>
      </trkpt>
      <trkpt lat="44.32811" lon="2.49228">
        <ele>599</ele>
        <time>2013-03-19T15:45:44Z</time>
      </trkpt>
      <trkpt lat="44.32819" lon="2.49216">
        <ele>596</ele>
        <time>2013-03-19T15:46:02Z</time>
      </trkpt>
      <trkpt lat="44.32828" lon="2.49204">
        <ele>592</ele>
        <time>2013-03-19T15:46:11Z</time>
      </trkpt>
      <trkpt lat="44.32835" lon="2.49192">
        <ele>590</ele>
        <time>2013-03-19T15:46:20Z</time>
      </trkpt>
      <trkpt lat="44.32842" lon="2.49184">
        <ele>590</ele>
        <time>2013-03-19T15:46:29Z</time>
      </trkpt>
      <trkpt lat="44.32845" lon="2.49179">
        <ele>588</ele>
        <time>2013-03-19T15:46:40Z</time>
      </trkpt>
      <trkpt lat="44.32849" lon="2.49172">
        <ele>589</ele>
        <time>2013-03-19T15:46:54Z</time>
      </trkpt>
      <trkpt lat="44.32857" lon="2.49164">
        <ele>590</ele>
        <time>2013-03-19T15:47:03Z</time>
      </trkpt>
      <trkpt lat="44.32866" lon="2.49155">
        <ele>590</ele>
        <time>2013-03-19T15:47:14Z</time>
      </trkpt>
      <trkpt lat="44.32873" lon="2.49147">
        <ele>591</ele>
        <time>2013-03-19T15:47:20Z</time>
      </trkpt>
      <trkpt lat="44.32879" lon="2.49133">
        <ele>590</ele>
        <time>2013-03-19T15:47:31Z</time>
      </trkpt>
      <trkpt lat="44.32883" lon="2.49119">
        <ele>590</ele>
        <time>2013-03-19T15:47:36Z</time>
      </trkpt>
      <trkpt lat="44.32882" lon="2.49104">
        <ele>589</ele>
        <time>2013-03-19T15:48:05Z</time>
      </trkpt>
      <trkpt lat="44.32883" lon="2.49089">
        <ele>586</ele>
        <time>2013-03-19T15:48:11Z</time>
      </trkpt>
      <trkpt lat="44.32884" lon="2.49076">
        <ele>586</ele>
        <time>2013-03-19T15:48:19Z</time>
      </trkpt>
      <trkpt lat="44.3288" lon="2.49063">
        <ele>585</ele>
        <time>2013-03-19T15:48:27Z</time>
      </trkpt>
      <trkpt lat="44.32877" lon="2.4905">
        <ele>584</ele>
        <time>2013-03-19T15:48:32Z</time>
      </trkpt>
      <trkpt lat="44.32873" lon="2.49038">
        <ele>584</ele>
        <time>2013-03-19T15:48:39Z</time>
      </trkpt>
      <trkpt lat="44.32868" lon="2.49026">
        <ele>583</ele>
        <time>2013-03-19T15:48:45Z</time>
      </trkpt>
      <trkpt lat="44.32871" lon="2.49014">
        <ele>584</ele>
        <time>2013-03-19T15:48:51Z</time>
      </trkpt>
      <trkpt lat="44.32874" lon="2.49">
        <ele>587</ele>
        <time>2013-03-19T15:48:57Z</time>
      </trkpt>
      <trkpt lat="44.32874" lon="2.48986">
        <ele>589</ele>
        <time>2013-03-19T15:49:05Z</time>
      </trkpt>
      <trkpt lat="44.32882" lon="2.48977">
        <ele>591</ele>
        <time>2013-03-19T15:49:17Z</time>
      </trkpt>
      <trkpt lat="44.32886" lon="2.48965">
        <ele>591</ele>
        <time>2013-03-19T15:49:26Z</time>
      </trkpt>
      <trkpt lat="44.3289" lon="2.48952">
        <ele>594</ele>
        <time>2013-03-19T15:49:35Z</time>
      </trkpt>
      <trkpt lat="44.32892" lon="2.4894">
        <ele>595</ele>
        <time>2013-03-19T15:49:43Z</time>
      </trkpt>
      <trkpt lat="44.3289" lon="2.48926">
        <ele>591</ele>
        <time>2013-03-19T15:49:54Z</time>
      </trkpt>
      <trkpt lat="44.32893" lon="2.48913">
        <ele>589</ele>
        <time>2013-03-19T15:50:03Z</time>
      </trkpt>
      <trkpt lat="44.32897" lon="2.48901">
        <ele>586</ele>
        <time>2013-03-19T15:50:12Z</time>
      </trkpt>
      <trkpt lat="44.32905" lon="2.48892">
        <ele>585</ele>
        <time>2013-03-19T15:50:20Z</time>
      </trkpt>
      <trkpt lat="44.32909" lon="2.48881">
        <ele>583</ele>
        <time>2013-03-19T15:50:26Z</time>
      </trkpt>
      <trkpt lat="44.32912" lon="2.48868">
        <ele>580</ele>
        <time>2013-03-19T15:50:34Z</time>
      </trkpt>
      <trkpt lat="44.32915" lon="2.48854">
        <ele>577</ele>
        <time>2013-03-19T15:50:42Z</time>
      </trkpt>
      <trkpt lat="44.32917" lon="2.48839">
        <ele>578</ele>
        <time>2013-03-19T15:50:50Z</time>
      </trkpt>
      <trkpt lat="44.3292" lon="2.48826">
        <ele>580</ele>
        <time>2013-03-19T15:50:56Z</time>
      </trkpt>
      <trkpt lat="44.32925" lon="2.48815">
        <ele>580</ele>
        <time>2013-03-19T15:51:03Z</time>
      </trkpt>
      <trkpt lat="44.32928" lon="2.48801">
        <ele>579</ele>
        <time>2013-03-19T15:51:12Z</time>
      </trkpt>
      <trkpt lat="44.32932" lon="2.48786">
        <ele>577</ele>
        <time>2013-03-19T15:51:27Z</time>
      </trkpt>
      <trkpt lat="44.32936" lon="2.48774">
        <ele>579</ele>
        <time>2013-03-19T15:51:34Z</time>
      </trkpt>
      <trkpt lat="44.3294" lon="2.4876">
        <ele>584</ele>
        <time>2013-03-19T15:51:46Z</time>
      </trkpt>
      <trkpt lat="44.32937" lon="2.48751">
        <ele>588</ele>
        <time>2013-03-19T15:52:10Z</time>
      </trkpt>
      <trkpt lat="44.32933" lon="2.48747">
        <ele>587</ele>
        <time>2013-03-19T15:52:22Z</time>
      </trkpt>
      <trkpt lat="44.32932" lon="2.48736">
        <ele>588</ele>
        <time>2013-03-19T15:54:02Z</time>
      </trkpt>
      <trkpt lat="44.32938" lon="2.48739">
        <ele>594</ele>
        <time>2013-03-19T15:55:22Z</time>
      </trkpt>
      <trkpt lat="44.32943" lon="2.48732">
        <ele>590</ele>
        <time>2013-03-19T15:57:12Z</time>
      </trkpt>
      <trkpt lat="44.32952" lon="2.48724">
        <ele>588</ele>
        <time>2013-03-19T15:57:44Z</time>
      </trkpt>
      <trkpt lat="44.32957" lon="2.48713">
        <ele>587</ele>
        <time>2013-03-19T15:57:51Z</time>
      </trkpt>
      <trkpt lat="44.32963" lon="2.48702">
        <ele>583</ele>
        <time>2013-03-19T15:58:01Z</time>
      </trkpt>
      <trkpt lat="44.32969" lon="2.48683">
        <ele>579</ele>
        <time>2013-03-19T15:58:24Z</time>
      </trkpt>
      <trkpt lat="44.32975" lon="2.4867">
        <ele>580</ele>
        <time>2013-03-19T15:58:31Z</time>
      </trkpt>
      <trkpt lat="44.3298" lon="2.48659">
        <ele>579</ele>
        <time>2013-03-19T15:58:37Z</time>
      </trkpt>
      <trkpt lat="44.32986" lon="2.48648">
        <ele>577</ele>
        <time>2013-03-19T15:58:47Z</time>
      </trkpt>
      <trkpt lat="44.32985" lon="2.48632">
        <ele>576</ele>
        <time>2013-03-19T15:59:00Z</time>
      </trkpt>
      <trkpt lat="44.32984" lon="2.48619">
        <ele>578</ele>
        <time>2013-03-19T15:59:05Z</time>
      </trkpt>
      <trkpt lat="44.32987" lon="2.48607">
        <ele>579</ele>
        <time>2013-03-19T15:59:15Z</time>
      </trkpt>
      <trkpt lat="44.3299" lon="2.48595">
        <ele>579</ele>
        <time>2013-03-19T15:59:25Z</time>
      </trkpt>
      <trkpt lat="44.32993" lon="2.48582">
        <ele>579</ele>
        <time>2013-03-19T15:59:37Z</time>
      </trkpt>
      <trkpt lat="44.32999" lon="2.4857">
        <ele>578</ele>
        <time>2013-03-19T15:59:47Z</time>
      </trkpt>
      <trkpt lat="44.33" lon="2.48557">
        <ele>578</ele>
        <time>2013-03-19T15:59:56Z</time>
      </trkpt>
      <trkpt lat="44.33005" lon="2.48546">
        <ele>576</ele>
        <time>2013-03-19T16:00:03Z</time>
      </trkpt>
      <trkpt lat="44.33009" lon="2.48533">
        <ele>576</ele>
        <time>2013-03-19T16:00:11Z</time>
      </trkpt>
      <trkpt lat="44.33013" lon="2.48522">
        <ele>575</ele>
        <time>2013-03-19T16:00:20Z</time>
      </trkpt>
      <trkpt lat="44.33015" lon="2.48509">
        <ele>572</ele>
        <time>2013-03-19T16:00:27Z</time>
      </trkpt>
      <trkpt lat="44.33015" lon="2.48495">
        <ele>570</ele>
        <time>2013-03-19T16:00:35Z</time>
      </trkpt>
      <trkpt lat="44.33014" lon="2.48482">
        <ele>570</ele>
        <time>2013-03-19T16:00:42Z</time>
      </trkpt>
      <trkpt lat="44.33016" lon="2.48469">
        <ele>570</ele>
        <time>2013-03-19T16:00:49Z</time>
      </trkpt>
      <trkpt lat="44.3302" lon="2.48456">
        <ele>570</ele>
        <time>2013-03-19T16:01:00Z</time>
      </trkpt>
      <trkpt lat="44.33019" lon="2.48443">
        <ele>573</ele>
        <time>2013-03-19T16:01:08Z</time>
      </trkpt>
      <trkpt lat="44.33026" lon="2.48427">
        <ele>570</ele>
        <time>2013-03-19T16:01:19Z</time>
      </trkpt>
      <trkpt lat="44.33032" lon="2.4841">
        <ele>570</ele>
        <time>2013-03-19T16:01:31Z</time>
      </trkpt>
      <trkpt lat="44.33035" lon="2.48398">
        <ele>574</ele>
        <time>2013-03-19T16:01:39Z</time>
      </trkpt>
      <trkpt lat="44.33036" lon="2.48385">
        <ele>574</ele>
        <time>2013-03-19T16:01:47Z</time>
      </trkpt>
      <trkpt lat="44.33041" lon="2.48374">
        <ele>574</ele>
        <time>2013-03-19T16:01:51Z</time>
      </trkpt>
      <trkpt lat="44.33046" lon="2.48354">
        <ele>572</ele>
        <time>2013-03-19T16:02:05Z</time>
      </trkpt>
      <trkpt lat="44.33048" lon="2.48342">
        <ele>573</ele>
        <time>2013-03-19T16:02:17Z</time>
      </trkpt>
      <trkpt lat="44.33051" lon="2.48329">
        <ele>568</ele>
        <time>2013-03-19T16:02:25Z</time>
      </trkpt>
      <trkpt lat="44.33057" lon="2.48313">
        <ele>566</ele>
        <time>2013-03-19T16:02:36Z</time>
      </trkpt>
      <trkpt lat="44.33062" lon="2.483">
        <ele>563</ele>
        <time>2013-03-19T16:02:48Z</time>
      </trkpt>
      <trkpt lat="44.33064" lon="2.48287">
        <ele>563</ele>
        <time>2013-03-19T16:02:56Z</time>
      </trkpt>
      <trkpt lat="44.33065" lon="2.48273">
        <ele>563</ele>
        <time>2013-03-19T16:03:03Z</time>
      </trkpt>
      <trkpt lat="44.33068" lon="2.48256">
        <ele>564</ele>
        <time>2013-03-19T16:03:13Z</time>
      </trkpt>
      <trkpt lat="44.33064" lon="2.48244">
        <ele>564</ele>
        <time>2013-03-19T16:03:20Z</time>
      </trkpt>
      <trkpt lat="44.3307" lon="2.4823">
        <ele>566</ele>
        <time>2013-03-19T16:03:37Z</time>
      </trkpt>
      <trkpt lat="44.33068" lon="2.48224">
        <ele>571</ele>
        <time>2013-03-19T16:03:55Z</time>
      </trkpt>
      <trkpt lat="44.33074" lon="2.48213">
        <ele>568</ele>
        <time>2013-03-19T16:04:23Z</time>
      </trkpt>
      <trkpt lat="44.33078" lon="2.48195">
        <ele>566</ele>
        <time>2013-03-19T16:04:35Z</time>
      </trkpt>
      <trkpt lat="44.33084" lon="2.48181">
        <ele>566</ele>
        <time>2013-03-19T16:04:47Z</time>
      </trkpt>
      <trkpt lat="44.33087" lon="2.48166">
        <ele>567</ele>
        <time>2013-03-19T16:04:53Z</time>
      </trkpt>
      <trkpt lat="44.33089" lon="2.48154">
        <ele>567</ele>
        <time>2013-03-19T16:04:59Z</time>
      </trkpt>
      <trkpt lat="44.33093" lon="2.4814">
        <ele>568</ele>
        <time>2013-03-19T16:05:08Z</time>
      </trkpt>
      <trkpt lat="44.33097" lon="2.48128">
        <ele>567</ele>
        <time>2013-03-19T16:05:16Z</time>
      </trkpt>
      <trkpt lat="44.33102" lon="2.48118">
        <ele>566</ele>
        <time>2013-03-19T16:05:25Z</time>
      </trkpt>
      <trkpt lat="44.3311" lon="2.4811">
        <ele>563</ele>
        <time>2013-03-19T16:05:33Z</time>
      </trkpt>
      <trkpt lat="44.33116" lon="2.481">
        <ele>561</ele>
        <time>2013-03-19T16:05:41Z</time>
      </trkpt>
      <trkpt lat="44.33119" lon="2.48087">
        <ele>561</ele>
        <time>2013-03-19T16:05:50Z</time>
      </trkpt>
      <trkpt lat="44.33126" lon="2.48078">
        <ele>562</ele>
        <time>2013-03-19T16:05:59Z</time>
      </trkpt>
      <trkpt lat="44.33132" lon="2.48067">
        <ele>560</ele>
        <time>2013-03-19T16:06:07Z</time>
      </trkpt>
      <trkpt lat="44.33138" lon="2.48058">
        <ele>559</ele>
        <time>2013-03-19T16:06:14Z</time>
      </trkpt>
      <trkpt lat="44.33141" lon="2.48046">
        <ele>560</ele>
        <time>2013-03-19T16:06:23Z</time>
      </trkpt>
      <trkpt lat="44.33145" lon="2.48033">
        <ele>558</ele>
        <time>2013-03-19T16:06:33Z</time>
      </trkpt>
      <trkpt lat="44.33149" lon="2.48021">
        <ele>554</ele>
        <time>2013-03-19T16:06:42Z</time>
      </trkpt>
      <trkpt lat="44.33153" lon="2.4801">
        <ele>553</ele>
        <time>2013-03-19T16:06:48Z</time>
      </trkpt>
      <trkpt lat="44.33155" lon="2.47996">
        <ele>553</ele>
        <time>2013-03-19T16:06:57Z</time>
      </trkpt>
      <trkpt lat="44.33154" lon="2.47982">
        <ele>551</ele>
        <time>2013-03-19T16:07:07Z</time>
      </trkpt>
      <trkpt lat="44.33151" lon="2.47973">
        <ele>547</ele>
        <time>2013-03-19T16:07:23Z</time>
      </trkpt>
      <trkpt lat="44.33151" lon="2.47958">
        <ele>552</ele>
        <time>2013-03-19T16:07:35Z</time>
      </trkpt>
      <trkpt lat="44.33161" lon="2.47957">
        <ele>559</ele>
        <time>2013-03-19T16:08:38Z</time>
      </trkpt>
      <trkpt lat="44.33166" lon="2.47969">
        <ele>560</ele>
        <time>2013-03-19T16:08:48Z</time>
      </trkpt>
      <trkpt lat="44.33167" lon="2.47984">
        <ele>559</ele>
        <time>2013-03-19T16:09:03Z</time>
      </trkpt>
      <trkpt lat="44.33169" lon="2.47996">
        <ele>559</ele>
        <time>2013-03-19T16:09:13Z</time>
      </trkpt>
      <trkpt lat="44.33164" lon="2.48007">
        <ele>557</ele>
        <time>2013-03-19T16:09:23Z</time>
      </trkpt>
      <trkpt lat="44.33161" lon="2.48013">
        <ele>556</ele>
        <time>2013-03-19T16:09:35Z</time>
      </trkpt>
      <trkpt lat="44.33173" lon="2.48017">
        <ele>556</ele>
        <time>2013-03-19T16:09:51Z</time>
      </trkpt>
      <trkpt lat="44.3318" lon="2.48008">
        <ele>555</ele>
        <time>2013-03-19T16:09:55Z</time>
      </trkpt>
      <trkpt lat="44.33184" lon="2.47992">
        <ele>553</ele>
        <time>2013-03-19T16:09:59Z</time>
      </trkpt>
      <trkpt lat="44.33195" lon="2.47967">
        <ele>542</ele>
        <time>2013-03-19T16:10:17Z</time>
      </trkpt>
      <trkpt lat="44.33195" lon="2.47953">
        <ele>538</ele>
        <time>2013-03-19T16:10:33Z</time>
      </trkpt>
      <trkpt lat="44.33187" lon="2.47941">
        <ele>535</ele>
        <time>2013-03-19T16:10:43Z</time>
      </trkpt>
      <trkpt lat="44.3318" lon="2.47931">
        <ele>534</ele>
        <time>2013-03-19T16:10:49Z</time>
      </trkpt>
      <trkpt lat="44.33174" lon="2.47921">
        <ele>534</ele>
        <time>2013-03-19T16:11:00Z</time>
      </trkpt>
      <trkpt lat="44.33169" lon="2.47909">
        <ele>532</ele>
        <time>2013-03-19T16:11:07Z</time>
      </trkpt>
      <trkpt lat="44.33165" lon="2.47897">
        <ele>531</ele>
        <time>2013-03-19T16:11:15Z</time>
      </trkpt>
      <trkpt lat="44.33158" lon="2.47887">
        <ele>527</ele>
        <time>2013-03-19T16:11:24Z</time>
      </trkpt>
      <trkpt lat="44.33152" lon="2.47875">
        <ele>526</ele>
        <time>2013-03-19T16:11:37Z</time>
      </trkpt>
      <trkpt lat="44.33146" lon="2.47864">
        <ele>525</ele>
        <time>2013-03-19T16:11:43Z</time>
      </trkpt>
      <trkpt lat="44.33136" lon="2.47852">
        <ele>524</ele>
        <time>2013-03-19T16:11:55Z</time>
      </trkpt>
      <trkpt lat="44.33129" lon="2.47845">
        <ele>524</ele>
        <time>2013-03-19T16:11:58Z</time>
      </trkpt>
      <trkpt lat="44.33122" lon="2.47834">
        <ele>524</ele>
        <time>2013-03-19T16:12:10Z</time>
      </trkpt>
      <trkpt lat="44.33121" lon="2.47819">
        <ele>525</ele>
        <time>2013-03-19T16:12:20Z</time>
      </trkpt>
      <trkpt lat="44.33114" lon="2.47801">
        <ele>526</ele>
        <time>2013-03-19T16:12:48Z</time>
      </trkpt>
      <trkpt lat="44.33107" lon="2.47792">
        <ele>527</ele>
        <time>2013-03-19T16:12:54Z</time>
      </trkpt>
      <trkpt lat="44.331" lon="2.47783">
        <ele>526</ele>
        <time>2013-03-19T16:13:02Z</time>
      </trkpt>
      <trkpt lat="44.33095" lon="2.47772">
        <ele>525</ele>
        <time>2013-03-19T16:13:07Z</time>
      </trkpt>
      <trkpt lat="44.33091" lon="2.47757">
        <ele>522</ele>
        <time>2013-03-19T16:13:12Z</time>
      </trkpt>
      <trkpt lat="44.33089" lon="2.4774">
        <ele>519</ele>
        <time>2013-03-19T16:13:26Z</time>
      </trkpt>
      <trkpt lat="44.33099" lon="2.4774">
        <ele>520</ele>
        <time>2013-03-19T16:13:42Z</time>
      </trkpt>
      <trkpt lat="44.33096" lon="2.47739">
        <ele>523</ele>
        <time>2013-03-19T16:14:16Z</time>
      </trkpt>
      <trkpt lat="44.33085" lon="2.47743">
        <ele>524</ele>
        <time>2013-03-19T16:14:27Z</time>
      </trkpt>
      <trkpt lat="44.33085" lon="2.47725">
        <ele>523</ele>
        <time>2013-03-19T16:15:32Z</time>
      </trkpt>
      <trkpt lat="44.33093" lon="2.4773">
        <ele>524</ele>
        <time>2013-03-19T16:15:44Z</time>
      </trkpt>
      <trkpt lat="44.33101" lon="2.4774">
        <ele>523</ele>
        <time>2013-03-19T16:15:52Z</time>
      </trkpt>
      <trkpt lat="44.3311" lon="2.47749">
        <ele>521</ele>
        <time>2013-03-19T16:15:56Z</time>
      </trkpt>
      <trkpt lat="44.33127" lon="2.47752">
        <ele>521</ele>
        <time>2013-03-19T16:16:11Z</time>
      </trkpt>
      <trkpt lat="44.3312" lon="2.47759">
        <ele>524</ele>
        <time>2013-03-19T16:16:22Z</time>
      </trkpt>
      <trkpt lat="44.33122" lon="2.47772">
        <ele>522</ele>
        <time>2013-03-19T16:16:37Z</time>
      </trkpt>
      <trkpt lat="44.33129" lon="2.4778">
        <ele>519</ele>
        <time>2013-03-19T16:16:44Z</time>
      </trkpt>
      <trkpt lat="44.33136" lon="2.47789">
        <ele>517</ele>
        <time>2013-03-19T16:16:57Z</time>
      </trkpt>
      <trkpt lat="44.33142" lon="2.47799">
        <ele>516</ele>
        <time>2013-03-19T16:17:07Z</time>
      </trkpt>
      <trkpt lat="44.33153" lon="2.47802">
        <ele>517</ele>
        <time>2013-03-19T16:17:17Z</time>
      </trkpt>
      <trkpt lat="44.3316" lon="2.47813">
        <ele>518</ele>
        <time>2013-03-19T16:17:25Z</time>
      </trkpt>
      <trkpt lat="44.33169" lon="2.47816">
        <ele>518</ele>
        <time>2013-03-19T16:17:29Z</time>
      </trkpt>
      <trkpt lat="44.33179" lon="2.47821">
        <ele>518</ele>
        <time>2013-03-19T16:17:35Z</time>
      </trkpt>
      <trkpt lat="44.33187" lon="2.47829">
        <ele>518</ele>
        <time>2013-03-19T16:17:41Z</time>
      </trkpt>
      <trkpt lat="44.33191" lon="2.47831">
        <ele>518</ele>
        <time>2013-03-19T16:17:54Z</time>
      </trkpt>
      <trkpt lat="44.33203" lon="2.47833">
        <ele>519</ele>
        <time>2013-03-19T16:18:02Z</time>
      </trkpt>
      <trkpt lat="44.33213" lon="2.47838">
        <ele>520</ele>
        <time>2013-03-19T16:18:09Z</time>
      </trkpt>
      <trkpt lat="44.33221" lon="2.47845">
        <ele>518</ele>
        <time>2013-03-19T16:18:21Z</time>
      </trkpt>
      <trkpt lat="44.33232" lon="2.47853">
        <ele>514</ele>
        <time>2013-03-19T16:18:35Z</time>
      </trkpt>
      <trkpt lat="44.33242" lon="2.47855">
        <ele>512</ele>
        <time>2013-03-19T16:18:41Z</time>
      </trkpt>
      <trkpt lat="44.33255" lon="2.47853">
        <ele>505</ele>
        <time>2013-03-19T16:18:59Z</time>
      </trkpt>
      <trkpt lat="44.3326" lon="2.47841">
        <ele>509</ele>
        <time>2013-03-19T16:19:08Z</time>
      </trkpt>
      <trkpt lat="44.33271" lon="2.47836">
        <ele>522</ele>
        <time>2013-03-19T16:19:30Z</time>
      </trkpt>
      <trkpt lat="44.33291" lon="2.47843">
        <ele>508</ele>
        <time>2013-03-19T16:20:02Z</time>
      </trkpt>
      <trkpt lat="44.33302" lon="2.47836">
        <ele>514</ele>
        <time>2013-03-19T16:20:37Z</time>
      </trkpt>
      <trkpt lat="44.33312" lon="2.47838">
        <ele>507</ele>
        <time>2013-03-19T16:20:46Z</time>
      </trkpt>
      <trkpt lat="44.33325" lon="2.47839">
        <ele>503</ele>
        <time>2013-03-19T16:21:07Z</time>
      </trkpt>
      <trkpt lat="44.33334" lon="2.47846">
        <ele>501</ele>
        <time>2013-03-19T16:21:13Z</time>
      </trkpt>
      <trkpt lat="44.33341" lon="2.47853">
        <ele>497</ele>
        <time>2013-03-19T16:21:21Z</time>
      </trkpt>
      <trkpt lat="44.33347" lon="2.47863">
        <ele>495</ele>
        <time>2013-03-19T16:21:31Z</time>
      </trkpt>
      <trkpt lat="44.33355" lon="2.4787">
        <ele>493</ele>
        <time>2013-03-19T16:21:39Z</time>
      </trkpt>
      <trkpt lat="44.33361" lon="2.47881">
        <ele>490</ele>
        <time>2013-03-19T16:21:47Z</time>
      </trkpt>
      <trkpt lat="44.33367" lon="2.47893">
        <ele>487</ele>
        <time>2013-03-19T16:21:51Z</time>
      </trkpt>
      <trkpt lat="44.33368" lon="2.47903">
        <ele>484</ele>
        <time>2013-03-19T16:21:56Z</time>
      </trkpt>
      <trkpt lat="44.33371" lon="2.47908">
        <ele>482</ele>
        <time>2013-03-19T16:21:59Z</time>
      </trkpt>
      <trkpt lat="44.3337" lon="2.47921">
        <ele>477</ele>
        <time>2013-03-19T16:22:10Z</time>
      </trkpt>
      <trkpt lat="44.33374" lon="2.47934">
        <ele>476</ele>
        <time>2013-03-19T16:22:18Z</time>
      </trkpt>
      <trkpt lat="44.33374" lon="2.47946">
        <ele>478</ele>
        <time>2013-03-19T16:22:26Z</time>
      </trkpt>
      <trkpt lat="44.33376" lon="2.4796">
        <ele>479</ele>
        <time>2013-03-19T16:22:32Z</time>
      </trkpt>
      <trkpt lat="44.3338" lon="2.47974">
        <ele>483</ele>
        <time>2013-03-19T16:22:38Z</time>
      </trkpt>
      <trkpt lat="44.33384" lon="2.47986">
        <ele>487</ele>
        <time>2013-03-19T16:22:45Z</time>
      </trkpt>
      <trkpt lat="44.33378" lon="2.47994">
        <ele>489</ele>
        <time>2013-03-19T16:23:39Z</time>
      </trkpt>
      <trkpt lat="44.33381" lon="2.48002">
        <ele>487</ele>
        <time>2013-03-19T16:24:03Z</time>
      </trkpt>
      <trkpt lat="44.3339" lon="2.48011">
        <ele>481</ele>
        <time>2013-03-19T16:25:08Z</time>
      </trkpt>
      <trkpt lat="44.33392" lon="2.48018">
        <ele>482</ele>
        <time>2013-03-19T16:25:24Z</time>
      </trkpt>
      <trkpt lat="44.33393" lon="2.48027">
        <ele>483</ele>
        <time>2013-03-19T16:25:40Z</time>
      </trkpt>
      <trkpt lat="44.33391" lon="2.48036">
        <ele>484</ele>
        <time>2013-03-19T16:26:01Z</time>
      </trkpt>
      <trkpt lat="44.33393" lon="2.4804">
        <ele>479</ele>
        <time>2013-03-19T16:26:34Z</time>
      </trkpt>
      <trkpt lat="44.33404" lon="2.48037">
        <ele>475</ele>
        <time>2013-03-19T16:27:12Z</time>
      </trkpt>
      <trkpt lat="44.33413" lon="2.48037">
        <ele>474</ele>
        <time>2013-03-19T16:27:20Z</time>
      </trkpt>
      <trkpt lat="44.33425" lon="2.48029">
        <ele>472</ele>
        <time>2013-03-19T16:27:41Z</time>
      </trkpt>
      <trkpt lat="44.33439" lon="2.48028">
        <ele>479</ele>
        <time>2013-03-19T16:28:01Z</time>
      </trkpt>
      <trkpt lat="44.33444" lon="2.48028">
        <ele>478</ele>
        <time>2013-03-19T16:28:06Z</time>
      </trkpt>
      <trkpt lat="44.33448" lon="2.48028">
        <ele>476</ele>
        <time>2013-03-19T16:28:11Z</time>
      </trkpt>
      <trkpt lat="44.33454" lon="2.48028">
        <ele>474</ele>
        <time>2013-03-19T16:28:16Z</time>
      </trkpt>
      <trkpt lat="44.33459" lon="2.48028">
        <ele>474</ele>
        <time>2013-03-19T16:28:23Z</time>
      </trkpt>
      <trkpt lat="44.33466" lon="2.48025">
        <ele>475</ele>
        <time>2013-03-19T16:28:32Z</time>
      </trkpt>
      <trkpt lat="44.33467" lon="2.48021">
        <ele>475</ele>
        <time>2013-03-19T16:28:39Z</time>
      </trkpt>
      <trkpt lat="44.33464" lon="2.48031">
        <ele>479</ele>
        <time>2013-03-19T16:29:27Z</time>
      </trkpt>
      <trkpt lat="44.33461" lon="2.48035">
        <ele>479</ele>
        <time>2013-03-19T16:29:33Z</time>
      </trkpt>
      <trkpt lat="44.3345" lon="2.48041">
        <ele>477</ele>
        <time>2013-03-19T16:29:49Z</time>
      </trkpt>
      <trkpt lat="44.33444" lon="2.48044">
        <ele>475</ele>
        <time>2013-03-19T16:29:56Z</time>
      </trkpt>
      <trkpt lat="44.33439" lon="2.48044">
        <ele>472</ele>
        <time>2013-03-19T16:30:04Z</time>
      </trkpt>
      <trkpt lat="44.33438" lon="2.48039">
        <ele>470</ele>
        <time>2013-03-19T16:31:06Z</time>
      </trkpt>
      <trkpt lat="44.33446" lon="2.48036">
        <ele>469</ele>
        <time>2013-03-19T16:31:16Z</time>
      </trkpt>
      <trkpt lat="44.33454" lon="2.48033">
        <ele>468</ele>
        <time>2013-03-19T16:31:23Z</time>
      </trkpt>
      <trkpt lat="44.33459" lon="2.48028">
        <ele>469</ele>
        <time>2013-03-19T16:31:29Z</time>
      </trkpt>
      <trkpt lat="44.33463" lon="2.48026">
        <ele>469</ele>
        <time>2013-03-19T16:31:35Z</time>
      </trkpt>
      <trkpt lat="44.3347" lon="2.48025">
        <ele>469</ele>
        <time>2013-03-19T16:31:55Z</time>
      </trkpt>
      <trkpt lat="44.33479" lon="2.48021">
        <ele>467</ele>
        <time>2013-03-19T16:32:05Z</time>
      </trkpt>
      <trkpt lat="44.33482" lon="2.48017">
        <ele>467</ele>
        <time>2013-03-19T16:32:07Z</time>
      </trkpt>
      <trkpt lat="44.33485" lon="2.48011">
        <ele>467</ele>
        <time>2013-03-19T16:32:11Z</time>
      </trkpt>
      <trkpt lat="44.33487" lon="2.48005">
        <ele>468</ele>
        <time>2013-03-19T16:32:14Z</time>
      </trkpt>
      <trkpt lat="44.3349" lon="2.47999">
        <ele>468</ele>
        <time>2013-03-19T16:32:17Z</time>
      </trkpt>
      <trkpt lat="44.33496" lon="2.4799">
        <ele>467</ele>
        <time>2013-03-19T16:32:23Z</time>
      </trkpt>
      <trkpt lat="44.33504" lon="2.47984">
        <ele>467</ele>
        <time>2013-03-19T16:32:29Z</time>
      </trkpt>
      <trkpt lat="44.33513" lon="2.47979">
        <ele>466</ele>
        <time>2013-03-19T16:32:35Z</time>
      </trkpt>
      <trkpt lat="44.33517" lon="2.47973">
        <ele>466</ele>
        <time>2013-03-19T16:32:41Z</time>
      </trkpt>
      <trkpt lat="44.33526" lon="2.4797">
        <ele>471</ele>
        <time>2013-03-19T16:32:51Z</time>
      </trkpt>
      <trkpt lat="44.33529" lon="2.47983">
        <ele>475</ele>
        <time>2013-03-19T16:33:01Z</time>
      </trkpt>
      <trkpt lat="44.33532" lon="2.47995">
        <ele>477</ele>
        <time>2013-03-19T16:33:07Z</time>
      </trkpt>
      <trkpt lat="44.33532" lon="2.48002">
        <ele>475</ele>
        <time>2013-03-19T16:33:14Z</time>
      </trkpt>
      <trkpt lat="44.33533" lon="2.48007">
        <ele>473</ele>
        <time>2013-03-19T16:33:27Z</time>
      </trkpt>
      <trkpt lat="44.33537" lon="2.48013">
        <ele>472</ele>
        <time>2013-03-19T16:33:50Z</time>
      </trkpt>
      <trkpt lat="44.33538" lon="2.48021">
        <ele>474</ele>
        <time>2013-03-19T16:33:59Z</time>
      </trkpt>
      <trkpt lat="44.33539" lon="2.48028">
        <ele>474</ele>
        <time>2013-03-19T16:34:02Z</time>
      </trkpt>
      <trkpt lat="44.33538" lon="2.48036">
        <ele>475</ele>
        <time>2013-03-19T16:34:09Z</time>
      </trkpt>
      <trkpt lat="44.3354" lon="2.48045">
        <ele>477</ele>
        <time>2013-03-19T16:34:15Z</time>
      </trkpt>
      <trkpt lat="44.3354" lon="2.48058">
        <ele>478</ele>
        <time>2013-03-19T16:34:21Z</time>
      </trkpt>
      <trkpt lat="44.3354" lon="2.48066">
        <ele>479</ele>
        <time>2013-03-19T16:34:24Z</time>
      </trkpt>
      <trkpt lat="44.33539" lon="2.48073">
        <ele>478</ele>
        <time>2013-03-19T16:34:27Z</time>
      </trkpt>
      <trkpt lat="44.33535" lon="2.48079">
        <ele>476</ele>
        <time>2013-03-19T16:34:33Z</time>
      </trkpt>
      <trkpt lat="44.33527" lon="2.48084">
        <ele>479</ele>
        <time>2013-03-19T16:34:42Z</time>
      </trkpt>
      <trkpt lat="44.33517" lon="2.48085">
        <ele>479</ele>
        <time>2013-03-19T16:34:48Z</time>
      </trkpt>
      <trkpt lat="44.33507" lon="2.48085">
        <ele>481</ele>
        <time>2013-03-19T16:34:54Z</time>
      </trkpt>
      <trkpt lat="44.33497" lon="2.48087">
        <ele>482</ele>
        <time>2013-03-19T16:35:02Z</time>
      </trkpt>
      <trkpt lat="44.33487" lon="2.48095">
        <ele>482</ele>
        <time>2013-03-19T16:35:10Z</time>
      </trkpt>
      <trkpt lat="44.33479" lon="2.48103">
        <ele>483</ele>
        <time>2013-03-19T16:35:16Z</time>
      </trkpt>
      <trkpt lat="44.33473" lon="2.48113">
        <ele>483</ele>
        <time>2013-03-19T16:35:22Z</time>
      </trkpt>
      <trkpt lat="44.33465" lon="2.48123">
        <ele>484</ele>
        <time>2013-03-19T16:35:29Z</time>
      </trkpt>
      <trkpt lat="44.33457" lon="2.4813">
        <ele>484</ele>
        <time>2013-03-19T16:35:36Z</time>
      </trkpt>
      <trkpt lat="44.33448" lon="2.48137">
        <ele>483</ele>
        <time>2013-03-19T16:35:42Z</time>
      </trkpt>
      <trkpt lat="44.3344" lon="2.48144">
        <ele>484</ele>
        <time>2013-03-19T16:35:49Z</time>
      </trkpt>
      <trkpt lat="44.33432" lon="2.48151">
        <ele>486</ele>
        <time>2013-03-19T16:35:58Z</time>
      </trkpt>
      <trkpt lat="44.33422" lon="2.48158">
        <ele>486</ele>
        <time>2013-03-19T16:36:05Z</time>
      </trkpt>
      <trkpt lat="44.33418" lon="2.48161">
        <ele>487</ele>
        <time>2013-03-19T16:36:09Z</time>
      </trkpt>
      <trkpt lat="44.33411" lon="2.4817">
        <ele>488</ele>
        <time>2013-03-19T16:36:15Z</time>
      </trkpt>
      <trkpt lat="44.33403" lon="2.4818">
        <ele>488</ele>
        <time>2013-03-19T16:36:22Z</time>
      </trkpt>
      <trkpt lat="44.33397" lon="2.48189">
        <ele>489</ele>
        <time>2013-03-19T16:36:29Z</time>
      </trkpt>
      <trkpt lat="44.33394" lon="2.48199">
        <ele>490</ele>
        <time>2013-03-19T16:36:35Z</time>
      </trkpt>
      <trkpt lat="44.33391" lon="2.48206">
        <ele>490</ele>
        <time>2013-03-19T16:36:39Z</time>
      </trkpt>
      <trkpt lat="44.33389" lon="2.48213">
        <ele>490</ele>
        <time>2013-03-19T16:36:42Z</time>
      </trkpt>
      <trkpt lat="44.33387" lon="2.48219">
        <ele>491</ele>
        <time>2013-03-19T16:36:46Z</time>
      </trkpt>
      <trkpt lat="44.33384" lon="2.48228">
        <ele>491</ele>
        <time>2013-03-19T16:36:51Z</time>
      </trkpt>
      <trkpt lat="44.33383" lon="2.48235">
        <ele>491</ele>
        <time>2013-03-19T16:36:55Z</time>
      </trkpt>
      <trkpt lat="44.33382" lon="2.48242">
        <ele>492</ele>
        <time>2013-03-19T16:36:59Z</time>
      </trkpt>
      <trkpt lat="44.33378" lon="2.48252">
        <ele>492</ele>
        <time>2013-03-19T16:37:04Z</time>
      </trkpt>
      <trkpt lat="44.33378" lon="2.48265">
        <ele>492</ele>
        <time>2013-03-19T16:37:10Z</time>
      </trkpt>
      <trkpt lat="44.33378" lon="2.48272">
        <ele>492</ele>
        <time>2013-03-19T16:37:13Z</time>
      </trkpt>
      <trkpt lat="44.33376" lon="2.48286">
        <ele>491</ele>
        <time>2013-03-19T16:37:20Z</time>
      </trkpt>
      <trkpt lat="44.33376" lon="2.48295">
        <ele>492</ele>
        <time>2013-03-19T16:37:27Z</time>
      </trkpt>
      <trkpt lat="44.33374" lon="2.48308">
        <ele>492</ele>
        <time>2013-03-19T16:37:35Z</time>
      </trkpt>
      <trkpt lat="44.33372" lon="2.48315">
        <ele>492</ele>
        <time>2013-03-19T16:37:38Z</time>
      </trkpt>
      <trkpt lat="44.33371" lon="2.48322">
        <ele>493</ele>
        <time>2013-03-19T16:37:42Z</time>
      </trkpt>
      <trkpt lat="44.33368" lon="2.48335">
        <ele>492</ele>
        <time>2013-03-19T16:37:50Z</time>
      </trkpt>
      <trkpt lat="44.33363" lon="2.48348">
        <ele>492</ele>
        <time>2013-03-19T16:37:58Z</time>
      </trkpt>
      <trkpt lat="44.3336" lon="2.48357">
        <ele>493</ele>
        <time>2013-03-19T16:38:02Z</time>
      </trkpt>
      <trkpt lat="44.33358" lon="2.48363">
        <ele>494</ele>
        <time>2013-03-19T16:38:05Z</time>
      </trkpt>
      <trkpt lat="44.33357" lon="2.48374">
        <ele>495</ele>
        <time>2013-03-19T16:38:10Z</time>
      </trkpt>
      <trkpt lat="44.33354" lon="2.48381">
        <ele>495</ele>
        <time>2013-03-19T16:38:14Z</time>
      </trkpt>
      <trkpt lat="44.33352" lon="2.48388">
        <ele>495</ele>
        <time>2013-03-19T16:38:18Z</time>
      </trkpt>
      <trkpt lat="44.33349" lon="2.48397">
        <ele>498</ele>
        <time>2013-03-19T16:38:23Z</time>
      </trkpt>
      <trkpt lat="44.33348" lon="2.48404">
        <ele>499</ele>
        <time>2013-03-19T16:38:27Z</time>
      </trkpt>
      <trkpt lat="44.33347" lon="2.48411">
        <ele>502</ele>
        <time>2013-03-19T16:38:31Z</time>
      </trkpt>
      <trkpt lat="44.33344" lon="2.4842">
        <ele>503</ele>
        <time>2013-03-19T16:38:36Z</time>
      </trkpt>
      <trkpt lat="44.33343" lon="2.48434">
        <ele>503</ele>
        <time>2013-03-19T16:38:45Z</time>
      </trkpt>
      <trkpt lat="44.33344" lon="2.48438">
        <ele>504</ele>
        <time>2013-03-19T16:38:56Z</time>
      </trkpt>
      <trkpt lat="44.33347" lon="2.48439">
        <ele>501</ele>
        <time>2013-03-19T16:39:14Z</time>
      </trkpt>
      <trkpt lat="44.33352" lon="2.48435">
        <ele>501</ele>
        <time>2013-03-19T16:39:18Z</time>
      </trkpt>
      <trkpt lat="44.33355" lon="2.4843">
        <ele>503</ele>
        <time>2013-03-19T16:39:23Z</time>
      </trkpt>
      <trkpt lat="44.33359" lon="2.48425">
        <ele>503</ele>
        <time>2013-03-19T16:39:28Z</time>
      </trkpt>
      <trkpt lat="44.33363" lon="2.48419">
        <ele>505</ele>
        <time>2013-03-19T16:39:33Z</time>
      </trkpt>
      <trkpt lat="44.33368" lon="2.48408">
        <ele>507</ele>
        <time>2013-03-19T16:39:40Z</time>
      </trkpt>
      <trkpt lat="44.3337" lon="2.48403">
        <ele>508</ele>
        <time>2013-03-19T16:39:45Z</time>
      </trkpt>
      <trkpt lat="44.33374" lon="2.48397">
        <ele>508</ele>
        <time>2013-03-19T16:39:50Z</time>
      </trkpt>
      <trkpt lat="44.33378" lon="2.48391">
        <ele>509</ele>
        <time>2013-03-19T16:39:56Z</time>
      </trkpt>
      <trkpt lat="44.33382" lon="2.48386">
        <ele>509</ele>
        <time>2013-03-19T16:39:59Z</time>
      </trkpt>
      <trkpt lat="44.33387" lon="2.48382">
        <ele>508</ele>
        <time>2013-03-19T16:40:02Z</time>
      </trkpt>
      <trkpt lat="44.33392" lon="2.48377">
        <ele>507</ele>
        <time>2013-03-19T16:40:05Z</time>
      </trkpt>
      <trkpt lat="44.33398" lon="2.48366">
        <ele>507</ele>
        <time>2013-03-19T16:40:14Z</time>
      </trkpt>
      <trkpt lat="44.33402" lon="2.48359">
        <ele>507</ele>
        <time>2013-03-19T16:40:18Z</time>
      </trkpt>
      <trkpt lat="44.33406" lon="2.48352">
        <ele>509</ele>
        <time>2013-03-19T16:40:24Z</time>
      </trkpt>
      <trkpt lat="44.3341" lon="2.48345">
        <ele>510</ele>
        <time>2013-03-19T16:40:30Z</time>
      </trkpt>
      <trkpt lat="44.33414" lon="2.4834">
        <ele>511</ele>
        <time>2013-03-19T16:40:34Z</time>
      </trkpt>
      <trkpt lat="44.33417" lon="2.48335">
        <ele>513</ele>
        <time>2013-03-19T16:40:39Z</time>
      </trkpt>
      <trkpt lat="44.33424" lon="2.48325">
        <ele>514</ele>
        <time>2013-03-19T16:40:46Z</time>
      </trkpt>
      <trkpt lat="44.33428" lon="2.48314">
        <ele>514</ele>
        <time>2013-03-19T16:40:52Z</time>
      </trkpt>
      <trkpt lat="44.33434" lon="2.48303">
        <ele>516</ele>
        <time>2013-03-19T16:41:00Z</time>
      </trkpt>
      <trkpt lat="44.33442" lon="2.48297">
        <ele>520</ele>
        <time>2013-03-19T16:41:10Z</time>
      </trkpt>
      <trkpt lat="44.33447" lon="2.48293">
        <ele>520</ele>
        <time>2013-03-19T16:41:14Z</time>
      </trkpt>
      <trkpt lat="44.33451" lon="2.48289">
        <ele>521</ele>
        <time>2013-03-19T16:41:18Z</time>
      </trkpt>
      <trkpt lat="44.33455" lon="2.48286">
        <ele>523</ele>
        <time>2013-03-19T16:41:22Z</time>
      </trkpt>
      <trkpt lat="44.3346" lon="2.48282">
        <ele>524</ele>
        <time>2013-03-19T16:41:27Z</time>
      </trkpt>
      <trkpt lat="44.33469" lon="2.48277">
        <ele>526</ele>
        <time>2013-03-19T16:41:35Z</time>
      </trkpt>
      <trkpt lat="44.33481" lon="2.48277">
        <ele>527</ele>
        <time>2013-03-19T16:41:43Z</time>
      </trkpt>
      <trkpt lat="44.33487" lon="2.48275">
        <ele>528</ele>
        <time>2013-03-19T16:41:46Z</time>
      </trkpt>
      <trkpt lat="44.33491" lon="2.48274">
        <ele>529</ele>
        <time>2013-03-19T16:41:50Z</time>
      </trkpt>
      <trkpt lat="44.33496" lon="2.48275">
        <ele>531</ele>
        <time>2013-03-19T16:41:55Z</time>
      </trkpt>
      <trkpt lat="44.33501" lon="2.48278">
        <ele>532</ele>
        <time>2013-03-19T16:42:00Z</time>
      </trkpt>
      <trkpt lat="44.3351" lon="2.48278">
        <ele>534</ele>
        <time>2013-03-19T16:42:08Z</time>
      </trkpt>
      <trkpt lat="44.33515" lon="2.48279">
        <ele>533</ele>
        <time>2013-03-19T16:42:12Z</time>
      </trkpt>
      <trkpt lat="44.3352" lon="2.4828">
        <ele>533</ele>
        <time>2013-03-19T16:42:16Z</time>
      </trkpt>
      <trkpt lat="44.33524" lon="2.48283">
        <ele>532</ele>
        <time>2013-03-19T16:42:21Z</time>
      </trkpt>
      <trkpt lat="44.33528" lon="2.48288">
        <ele>533</ele>
        <time>2013-03-19T16:42:25Z</time>
      </trkpt>
      <trkpt lat="44.33527" lon="2.48295">
        <ele>534</ele>
        <time>2013-03-19T16:42:29Z</time>
      </trkpt>
      <trkpt lat="44.33524" lon="2.48301">
        <ele>537</ele>
        <time>2013-03-19T16:42:41Z</time>
      </trkpt>
      <trkpt lat="44.33519" lon="2.48314">
        <ele>537</ele>
        <time>2013-03-19T16:42:47Z</time>
      </trkpt>
      <trkpt lat="44.33515" lon="2.48326">
        <ele>541</ele>
        <time>2013-03-19T16:43:00Z</time>
      </trkpt>
      <trkpt lat="44.33516" lon="2.48352">
        <ele>551</ele>
        <time>2013-03-19T16:43:18Z</time>
      </trkpt>
      <trkpt lat="44.33516" lon="2.48365">
        <ele>552</ele>
        <time>2013-03-19T16:43:24Z</time>
      </trkpt>
      <trkpt lat="44.33516" lon="2.48372">
        <ele>552</ele>
        <time>2013-03-19T16:43:29Z</time>
      </trkpt>
      <trkpt lat="44.33515" lon="2.48389">
        <ele>552</ele>
        <time>2013-03-19T16:43:37Z</time>
      </trkpt>
      <trkpt lat="44.33518" lon="2.48401">
        <ele>552</ele>
        <time>2013-03-19T16:43:44Z</time>
      </trkpt>
      <trkpt lat="44.33522" lon="2.48409">
        <ele>552</ele>
        <time>2013-03-19T16:43:59Z</time>
      </trkpt>
      <trkpt lat="44.3353" lon="2.484">
        <ele>552</ele>
        <time>2013-03-19T16:44:09Z</time>
      </trkpt>
      <trkpt lat="44.33535" lon="2.48388">
        <ele>553</ele>
        <time>2013-03-19T16:44:19Z</time>
      </trkpt>
      <trkpt lat="44.3354" lon="2.48384">
        <ele>553</ele>
        <time>2013-03-19T16:44:26Z</time>
      </trkpt>
      <trkpt lat="44.33544" lon="2.4838">
        <ele>553</ele>
        <time>2013-03-19T16:44:29Z</time>
      </trkpt>
      <trkpt lat="44.33554" lon="2.48373">
        <ele>558</ele>
        <time>2013-03-19T16:44:42Z</time>
      </trkpt>
      <trkpt lat="44.3356" lon="2.48372">
        <ele>559</ele>
        <time>2013-03-19T16:44:44Z</time>
      </trkpt>
      <trkpt lat="44.33566" lon="2.4837">
        <ele>558</ele>
        <time>2013-03-19T16:44:46Z</time>
      </trkpt>
      <trkpt lat="44.33572" lon="2.48367">
        <ele>557</ele>
        <time>2013-03-19T16:44:52Z</time>
      </trkpt>
      <trkpt lat="44.33582" lon="2.48364">
        <ele>556</ele>
        <time>2013-03-19T16:44:58Z</time>
      </trkpt>
      <trkpt lat="44.33587" lon="2.48359">
        <ele>555</ele>
        <time>2013-03-19T16:45:04Z</time>
      </trkpt>
      <trkpt lat="44.33592" lon="2.48358">
        <ele>555</ele>
        <time>2013-03-19T16:45:08Z</time>
      </trkpt>
      <trkpt lat="44.33598" lon="2.4836">
        <ele>556</ele>
        <time>2013-03-19T16:45:14Z</time>
      </trkpt>
      <trkpt lat="44.33607" lon="2.48361">
        <ele>557</ele>
        <time>2013-03-19T16:45:20Z</time>
      </trkpt>
      <trkpt lat="44.33617" lon="2.48361">
        <ele>558</ele>
        <time>2013-03-19T16:45:26Z</time>
      </trkpt>
      <trkpt lat="44.33626" lon="2.4836">
        <ele>560</ele>
        <time>2013-03-19T16:45:31Z</time>
      </trkpt>
      <trkpt lat="44.33635" lon="2.4836">
        <ele>563</ele>
        <time>2013-03-19T16:45:39Z</time>
      </trkpt>
      <trkpt lat="44.33638" lon="2.48377">
        <ele>570</ele>
        <time>2013-03-19T16:46:03Z</time>
      </trkpt>
      <trkpt lat="44.33636" lon="2.48391">
        <ele>567</ele>
        <time>2013-03-19T16:46:16Z</time>
      </trkpt>
      <trkpt lat="44.33634" lon="2.48406">
        <ele>567</ele>
        <time>2013-03-19T16:46:21Z</time>
      </trkpt>
      <trkpt lat="44.33628" lon="2.48422">
        <ele>567</ele>
        <time>2013-03-19T16:46:27Z</time>
      </trkpt>
      <trkpt lat="44.33627" lon="2.48436">
        <ele>569</ele>
        <time>2013-03-19T16:46:38Z</time>
      </trkpt>
      <trkpt lat="44.33633" lon="2.48453">
        <ele>578</ele>
        <time>2013-03-19T16:46:55Z</time>
      </trkpt>
      <trkpt lat="44.33639" lon="2.48467">
        <ele>579</ele>
        <time>2013-03-19T16:47:02Z</time>
      </trkpt>
      <trkpt lat="44.33642" lon="2.48473">
        <ele>581</ele>
        <time>2013-03-19T16:47:07Z</time>
      </trkpt>
      <trkpt lat="44.33645" lon="2.48479">
        <ele>582</ele>
        <time>2013-03-19T16:47:11Z</time>
      </trkpt>
      <trkpt lat="44.33651" lon="2.48491">
        <ele>585</ele>
        <time>2013-03-19T16:47:21Z</time>
      </trkpt>
      <trkpt lat="44.33664" lon="2.48516">
        <ele>595</ele>
        <time>2013-03-19T16:47:40Z</time>
      </trkpt>
      <trkpt lat="44.33667" lon="2.48523">
        <ele>595</ele>
        <time>2013-03-19T16:47:44Z</time>
      </trkpt>
      <trkpt lat="44.3367" lon="2.48531">
        <ele>595</ele>
        <time>2013-03-19T16:47:53Z</time>
      </trkpt>
      <trkpt lat="44.33674" lon="2.48537">
        <ele>594</ele>
        <time>2013-03-19T16:47:59Z</time>
      </trkpt>
      <trkpt lat="44.33677" lon="2.48544">
        <ele>594</ele>
        <time>2013-03-19T16:48:03Z</time>
      </trkpt>
      <trkpt lat="44.33681" lon="2.48549">
        <ele>595</ele>
        <time>2013-03-19T16:48:06Z</time>
      </trkpt>
      <trkpt lat="44.33686" lon="2.48553">
        <ele>597</ele>
        <time>2013-03-19T16:48:11Z</time>
      </trkpt>
      <trkpt lat="44.3369" lon="2.48557">
        <ele>598</ele>
        <time>2013-03-19T16:48:14Z</time>
      </trkpt>
      <trkpt lat="44.33694" lon="2.48561">
        <ele>599</ele>
        <time>2013-03-19T16:48:18Z</time>
      </trkpt>
      <trkpt lat="44.33698" lon="2.48565">
        <ele>600</ele>
        <time>2013-03-19T16:48:21Z</time>
      </trkpt>
      <trkpt lat="44.33701" lon="2.4857">
        <ele>601</ele>
        <time>2013-03-19T16:48:24Z</time>
      </trkpt>
      <trkpt lat="44.33705" lon="2.48574">
        <ele>602</ele>
        <time>2013-03-19T16:48:28Z</time>
      </trkpt>
      <trkpt lat="44.33709" lon="2.48577">
        <ele>602</ele>
        <time>2013-03-19T16:48:32Z</time>
      </trkpt>
      <trkpt lat="44.33712" lon="2.48581">
        <ele>602</ele>
        <time>2013-03-19T16:48:36Z</time>
      </trkpt>
      <trkpt lat="44.33716" lon="2.48585">
        <ele>603</ele>
        <time>2013-03-19T16:48:40Z</time>
      </trkpt>
      <trkpt lat="44.33719" lon="2.4859">
        <ele>604</ele>
        <time>2013-03-19T16:48:45Z</time>
      </trkpt>
      <trkpt lat="44.3372" lon="2.48594">
        <ele>605</ele>
        <time>2013-03-19T16:49:52Z</time>
      </trkpt>
      <trkpt lat="44.33722" lon="2.48599">
        <ele>604</ele>
        <time>2013-03-19T16:51:27Z</time>
      </trkpt>
      <trkpt lat="44.33726" lon="2.48605">
        <ele>604</ele>
        <time>2013-03-19T16:51:32Z</time>
      </trkpt>
      <trkpt lat="44.3373" lon="2.48608">
        <ele>604</ele>
        <time>2013-03-19T16:51:37Z</time>
      </trkpt>
      <trkpt lat="44.33736" lon="2.48609">
        <ele>604</ele>
        <time>2013-03-19T16:51:41Z</time>
      </trkpt>
      <trkpt lat="44.3374" lon="2.48613">
        <ele>604</ele>
        <time>2013-03-19T16:51:44Z</time>
      </trkpt>
      <trkpt lat="44.33746" lon="2.48616">
        <ele>605</ele>
        <time>2013-03-19T16:51:48Z</time>
      </trkpt>
      <trkpt lat="44.33751" lon="2.48617">
        <ele>605</ele>
        <time>2013-03-19T16:51:52Z</time>
      </trkpt>
      <trkpt lat="44.33756" lon="2.4862">
        <ele>605</ele>
        <time>2013-03-19T16:51:56Z</time>
      </trkpt>
      <trkpt lat="44.33761" lon="2.48621">
        <ele>605</ele>
        <time>2013-03-19T16:52:01Z</time>
      </trkpt>
      <trkpt lat="44.33766" lon="2.48623">
        <ele>605</ele>
        <time>2013-03-19T16:52:05Z</time>
      </trkpt>
      <trkpt lat="44.33771" lon="2.48625">
        <ele>606</ele>
        <time>2013-03-19T16:52:09Z</time>
      </trkpt>
      <trkpt lat="44.33776" lon="2.48626">
        <ele>608</ele>
        <time>2013-03-19T16:52:14Z</time>
      </trkpt>
      <trkpt lat="44.33782" lon="2.48629">
        <ele>607</ele>
        <time>2013-03-19T16:52:18Z</time>
      </trkpt>
      <trkpt lat="44.33786" lon="2.48629">
        <ele>607</ele>
        <time>2013-03-19T16:52:22Z</time>
      </trkpt>
      <trkpt lat="44.33792" lon="2.48632">
        <ele>608</ele>
        <time>2013-03-19T16:52:27Z</time>
      </trkpt>
      <trkpt lat="44.33797" lon="2.48634">
        <ele>608</ele>
        <time>2013-03-19T16:52:31Z</time>
      </trkpt>
      <trkpt lat="44.33805" lon="2.48638">
        <ele>607</ele>
        <time>2013-03-19T16:52:37Z</time>
      </trkpt>
      <trkpt lat="44.33811" lon="2.4864">
        <ele>606</ele>
        <time>2013-03-19T16:52:41Z</time>
      </trkpt>
      <trkpt lat="44.33816" lon="2.4864">
        <ele>605</ele>
        <time>2013-03-19T16:52:45Z</time>
      </trkpt>
      <trkpt lat="44.33822" lon="2.48642">
        <ele>603</ele>
        <time>2013-03-19T16:52:49Z</time>
      </trkpt>
      <trkpt lat="44.33827" lon="2.48646">
        <ele>605</ele>
        <time>2013-03-19T16:52:55Z</time>
      </trkpt>
      <trkpt lat="44.33838" lon="2.48644">
        <ele>607</ele>
        <time>2013-03-19T16:53:05Z</time>
      </trkpt>
      <trkpt lat="44.33843" lon="2.48643">
        <ele>608</ele>
        <time>2013-03-19T16:53:09Z</time>
      </trkpt>
      <trkpt lat="44.33848" lon="2.4864">
        <ele>607</ele>
        <time>2013-03-19T16:53:14Z</time>
      </trkpt>
      <trkpt lat="44.33852" lon="2.4864">
        <ele>606</ele>
        <time>2013-03-19T16:53:18Z</time>
      </trkpt>
      <trkpt lat="44.33862" lon="2.48641">
        <ele>607</ele>
        <time>2013-03-19T16:53:26Z</time>
      </trkpt>
      <trkpt lat="44.33866" lon="2.48639">
        <ele>608</ele>
        <time>2013-03-19T16:53:30Z</time>
      </trkpt>
      <trkpt lat="44.33877" lon="2.48638">
        <ele>609</ele>
        <time>2013-03-19T16:53:41Z</time>
      </trkpt>
      <trkpt lat="44.33887" lon="2.48636">
        <ele>614</ele>
        <time>2013-03-19T16:53:49Z</time>
      </trkpt>
      <trkpt lat="44.33892" lon="2.48635">
        <ele>614</ele>
        <time>2013-03-19T16:53:52Z</time>
      </trkpt>
      <trkpt lat="44.33899" lon="2.48634">
        <ele>614</ele>
        <time>2013-03-19T16:53:57Z</time>
      </trkpt>
      <trkpt lat="44.33909" lon="2.48636">
        <ele>614</ele>
        <time>2013-03-19T16:54:06Z</time>
      </trkpt>
      <trkpt lat="44.33917" lon="2.48643">
        <ele>617</ele>
        <time>2013-03-19T16:54:14Z</time>
      </trkpt>
      <trkpt lat="44.33929" lon="2.48645">
        <ele>620</ele>
        <time>2013-03-19T16:54:26Z</time>
      </trkpt>
      <trkpt lat="44.33937" lon="2.48651">
        <ele>621</ele>
        <time>2013-03-19T16:54:32Z</time>
      </trkpt>
      <trkpt lat="44.33946" lon="2.48655">
        <ele>620</ele>
        <time>2013-03-19T16:54:38Z</time>
      </trkpt>
      <trkpt lat="44.33956" lon="2.4866">
        <ele>620</ele>
        <time>2013-03-19T16:54:44Z</time>
      </trkpt>
      <trkpt lat="44.33966" lon="2.48663">
        <ele>620</ele>
        <time>2013-03-19T16:54:50Z</time>
      </trkpt>
      <trkpt lat="44.33975" lon="2.48665">
        <ele>621</ele>
        <time>2013-03-19T16:54:56Z</time>
      </trkpt>
      <trkpt lat="44.33983" lon="2.48667">
        <ele>621</ele>
        <time>2013-03-19T16:55:02Z</time>
      </trkpt>
      <trkpt lat="44.33988" lon="2.48667">
        <ele>621</ele>
        <time>2013-03-19T16:55:05Z</time>
      </trkpt>
      <trkpt lat="44.33995" lon="2.48671">
        <ele>620</ele>
        <time>2013-03-19T16:55:23Z</time>
      </trkpt>
      <trkpt lat="44.34004" lon="2.48673">
        <ele>628</ele>
        <time>2013-03-19T16:55:45Z</time>
      </trkpt>
      <trkpt lat="44.34013" lon="2.48672">
        <ele>628</ele>
        <time>2013-03-19T16:55:56Z</time>
      </trkpt>
      <trkpt lat="44.3402" lon="2.48672">
        <ele>628</ele>
        <time>2013-03-19T16:56:04Z</time>
      </trkpt>
      <trkpt lat="44.34029" lon="2.48671">
        <ele>625</ele>
        <time>2013-03-19T16:56:31Z</time>
      </trkpt>
      <trkpt lat="44.34031" lon="2.48669">
        <ele>631</ele>
        <time>2013-03-19T16:58:05Z</time>
      </trkpt>
      <trkpt lat="44.34032" lon="2.48668">
        <ele>630</ele>
        <time>2013-03-19T16:59:51Z</time>
      </trkpt>
      <trkpt lat="44.34028" lon="2.48676">
        <ele>630</ele>
        <time>2013-03-19T17:01:06Z</time>
      </trkpt>
      <trkpt lat="44.34033" lon="2.48677">
        <ele>627</ele>
        <time>2013-03-19T17:01:49Z</time>
      </trkpt>
      <trkpt lat="44.34032" lon="2.48674">
        <ele>631</ele>
        <time>2013-03-19T17:06:02Z</time>
      </trkpt>
      <trkpt lat="44.34031" lon="2.48672">
        <ele>632</ele>
        <time>2013-03-19T17:06:34Z</time>
      </trkpt>
      <trkpt lat="44.34041" lon="2.48671">
        <ele>632</ele>
        <time>2013-03-19T17:06:41Z</time>
      </trkpt>
      <trkpt lat="44.3405" lon="2.48669">
        <ele>632</ele>
        <time>2013-03-19T17:06:49Z</time>
      </trkpt>
      <trkpt lat="44.34059" lon="2.48666">
        <ele>631</ele>
        <time>2013-03-19T17:06:56Z</time>
      </trkpt>
      <trkpt lat="44.3407" lon="2.48665">
        <ele>630</ele>
        <time>2013-03-19T17:07:06Z</time>
      </trkpt>
      <trkpt lat="44.3408" lon="2.48662">
        <ele>632</ele>
        <time>2013-03-19T17:07:13Z</time>
      </trkpt>
      <trkpt lat="44.34091" lon="2.48664">
        <ele>633</ele>
        <time>2013-03-19T17:07:19Z</time>
      </trkpt>
      <trkpt lat="44.341" lon="2.48664">
        <ele>634</ele>
        <time>2013-03-19T17:07:28Z</time>
      </trkpt>
      <trkpt lat="44.3411" lon="2.48659">
        <ele>633</ele>
        <time>2013-03-19T17:07:34Z</time>
      </trkpt>
      <trkpt lat="44.34116" lon="2.48657">
        <ele>632</ele>
        <time>2013-03-19T17:07:37Z</time>
      </trkpt>
      <trkpt lat="44.34125" lon="2.48653">
        <ele>629</ele>
        <time>2013-03-19T17:07:44Z</time>
      </trkpt>
      <trkpt lat="44.34131" lon="2.48643">
        <ele>628</ele>
        <time>2013-03-19T17:07:52Z</time>
      </trkpt>
      <trkpt lat="44.34139" lon="2.48635">
        <ele>629</ele>
        <time>2013-03-19T17:07:58Z</time>
      </trkpt>
      <trkpt lat="44.34143" lon="2.48632">
        <ele>628</ele>
        <time>2013-03-19T17:08:02Z</time>
      </trkpt>
      <trkpt lat="44.34152" lon="2.48625">
        <ele>626</ele>
        <time>2013-03-19T17:08:09Z</time>
      </trkpt>
      <trkpt lat="44.34156" lon="2.48621">
        <ele>626</ele>
        <time>2013-03-19T17:08:13Z</time>
      </trkpt>
      <trkpt lat="44.34159" lon="2.48617">
        <ele>624</ele>
        <time>2013-03-19T17:08:18Z</time>
      </trkpt>
      <trkpt lat="44.34165" lon="2.48614">
        <ele>624</ele>
        <time>2013-03-19T17:08:24Z</time>
      </trkpt>
      <trkpt lat="44.3417" lon="2.48613">
        <ele>624</ele>
        <time>2013-03-19T17:08:28Z</time>
      </trkpt>
      <trkpt lat="44.34176" lon="2.48613">
        <ele>623</ele>
        <time>2013-03-19T17:08:32Z</time>
      </trkpt>
      <trkpt lat="44.34181" lon="2.48614">
        <ele>623</ele>
        <time>2013-03-19T17:08:35Z</time>
      </trkpt>
      <trkpt lat="44.34186" lon="2.48617">
        <ele>623</ele>
        <time>2013-03-19T17:08:39Z</time>
      </trkpt>
      <trkpt lat="44.34193" lon="2.48621">
        <ele>622</ele>
        <time>2013-03-19T17:08:46Z</time>
      </trkpt>
      <trkpt lat="44.34197" lon="2.48623">
        <ele>620</ele>
        <time>2013-03-19T17:08:50Z</time>
      </trkpt>
      <trkpt lat="44.34207" lon="2.48628">
        <ele>619</ele>
        <time>2013-03-19T17:08:56Z</time>
      </trkpt>
      <trkpt lat="44.34211" lon="2.48629">
        <ele>618</ele>
        <time>2013-03-19T17:08:59Z</time>
      </trkpt>
      <trkpt lat="44.34216" lon="2.48631">
        <ele>619</ele>
        <time>2013-03-19T17:09:03Z</time>
      </trkpt>
      <trkpt lat="44.34221" lon="2.48633">
        <ele>621</ele>
        <time>2013-03-19T17:09:08Z</time>
      </trkpt>
      <trkpt lat="44.34227" lon="2.48633">
        <ele>620</ele>
        <time>2013-03-19T17:09:13Z</time>
      </trkpt>
      <trkpt lat="44.34232" lon="2.48631">
        <ele>620</ele>
        <time>2013-03-19T17:09:17Z</time>
      </trkpt>
      <trkpt lat="44.34237" lon="2.48631">
        <ele>619</ele>
        <time>2013-03-19T17:09:20Z</time>
      </trkpt>
      <trkpt lat="44.34242" lon="2.48632">
        <ele>619</ele>
        <time>2013-03-19T17:09:24Z</time>
      </trkpt>
      <trkpt lat="44.34252" lon="2.48632">
        <ele>617</ele>
        <time>2013-03-19T17:09:32Z</time>
      </trkpt>
      <trkpt lat="44.34257" lon="2.48633">
        <ele>617</ele>
        <time>2013-03-19T17:09:36Z</time>
      </trkpt>
      <trkpt lat="44.34263" lon="2.48634">
        <ele>618</ele>
        <time>2013-03-19T17:09:40Z</time>
      </trkpt>
      <trkpt lat="44.34273" lon="2.48634">
        <ele>618</ele>
        <time>2013-03-19T17:09:47Z</time>
      </trkpt>
      <trkpt lat="44.34277" lon="2.48627">
        <ele>617</ele>
        <time>2013-03-19T17:09:54Z</time>
      </trkpt>
      <trkpt lat="44.34278" lon="2.48619">
        <ele>616</ele>
        <time>2013-03-19T17:09:59Z</time>
      </trkpt>
      <trkpt lat="44.34278" lon="2.48611">
        <ele>615</ele>
        <time>2013-03-19T17:10:03Z</time>
      </trkpt>
      <trkpt lat="44.34279" lon="2.48603">
        <ele>615</ele>
        <time>2013-03-19T17:10:08Z</time>
      </trkpt>
      <trkpt lat="44.3428" lon="2.48596">
        <ele>615</ele>
        <time>2013-03-19T17:10:13Z</time>
      </trkpt>
      <trkpt lat="44.34281" lon="2.48589">
        <ele>614</ele>
        <time>2013-03-19T17:10:17Z</time>
      </trkpt>
      <trkpt lat="44.34282" lon="2.48576">
        <ele>617</ele>
        <time>2013-03-19T17:10:24Z</time>
      </trkpt>
      <trkpt lat="44.34282" lon="2.48562">
        <ele>623</ele>
        <time>2013-03-19T17:10:33Z</time>
      </trkpt>
      <trkpt lat="44.3428" lon="2.48551">
        <ele>623</ele>
        <time>2013-03-19T17:10:40Z</time>
      </trkpt>
      <trkpt lat="44.34277" lon="2.48544">
        <ele>621</ele>
        <time>2013-03-19T17:10:44Z</time>
      </trkpt>
      <trkpt lat="44.34275" lon="2.48538">
        <ele>620</ele>
        <time>2013-03-19T17:10:48Z</time>
      </trkpt>
      <trkpt lat="44.34272" lon="2.4853">
        <ele>618</ele>
        <time>2013-03-19T17:10:54Z</time>
      </trkpt>
      <trkpt lat="44.34272" lon="2.48524">
        <ele>618</ele>
        <time>2013-03-19T17:10:58Z</time>
      </trkpt>
      <trkpt lat="44.34271" lon="2.48516">
        <ele>619</ele>
        <time>2013-03-19T17:11:02Z</time>
      </trkpt>
      <trkpt lat="44.34271" lon="2.48509">
        <ele>621</ele>
        <time>2013-03-19T17:11:06Z</time>
      </trkpt>
      <trkpt lat="44.34271" lon="2.48501">
        <ele>622</ele>
        <time>2013-03-19T17:11:10Z</time>
      </trkpt>
      <trkpt lat="44.34273" lon="2.48493">
        <ele>622</ele>
        <time>2013-03-19T17:11:13Z</time>
      </trkpt>
      <trkpt lat="44.34275" lon="2.48487">
        <ele>621</ele>
        <time>2013-03-19T17:11:16Z</time>
      </trkpt>
      <trkpt lat="44.34278" lon="2.4848">
        <ele>622</ele>
        <time>2013-03-19T17:11:21Z</time>
      </trkpt>
      <trkpt lat="44.34281" lon="2.48474">
        <ele>623</ele>
        <time>2013-03-19T17:11:26Z</time>
      </trkpt>
      <trkpt lat="44.34285" lon="2.48468">
        <ele>624</ele>
        <time>2013-03-19T17:11:30Z</time>
      </trkpt>
      <trkpt lat="44.34288" lon="2.48463">
        <ele>625</ele>
        <time>2013-03-19T17:11:33Z</time>
      </trkpt>
      <trkpt lat="44.34291" lon="2.48457">
        <ele>625</ele>
        <time>2013-03-19T17:11:37Z</time>
      </trkpt>
      <trkpt lat="44.34295" lon="2.48452">
        <ele>625</ele>
        <time>2013-03-19T17:11:41Z</time>
      </trkpt>
      <trkpt lat="44.34299" lon="2.48447">
        <ele>625</ele>
        <time>2013-03-19T17:11:45Z</time>
      </trkpt>
      <trkpt lat="44.34303" lon="2.48444">
        <ele>625</ele>
        <time>2013-03-19T17:11:48Z</time>
      </trkpt>
      <trkpt lat="44.34308" lon="2.4844">
        <ele>624</ele>
        <time>2013-03-19T17:11:52Z</time>
      </trkpt>
      <trkpt lat="44.34311" lon="2.48436">
        <ele>624</ele>
        <time>2013-03-19T17:11:56Z</time>
      </trkpt>
      <trkpt lat="44.34315" lon="2.48432">
        <ele>626</ele>
        <time>2013-03-19T17:12:01Z</time>
      </trkpt>
      <trkpt lat="44.34319" lon="2.48427">
        <ele>626</ele>
        <time>2013-03-19T17:12:06Z</time>
      </trkpt>
      <trkpt lat="44.34328" lon="2.4842">
        <ele>626</ele>
        <time>2013-03-19T17:12:13Z</time>
      </trkpt>
      <trkpt lat="44.34333" lon="2.48417">
        <ele>627</ele>
        <time>2013-03-19T17:12:18Z</time>
      </trkpt>
      <trkpt lat="44.34339" lon="2.48415">
        <ele>627</ele>
        <time>2013-03-19T17:12:23Z</time>
      </trkpt>
      <trkpt lat="44.34344" lon="2.48416">
        <ele>627</ele>
        <time>2013-03-19T17:12:26Z</time>
      </trkpt>
      <trkpt lat="44.34349" lon="2.48419">
        <ele>627</ele>
        <time>2013-03-19T17:12:31Z</time>
      </trkpt>
      <trkpt lat="44.34353" lon="2.48423">
        <ele>629</ele>
        <time>2013-03-19T17:12:35Z</time>
      </trkpt>
      <trkpt lat="44.34357" lon="2.48428">
        <ele>630</ele>
        <time>2013-03-19T17:12:39Z</time>
      </trkpt>
      <trkpt lat="44.34362" lon="2.48433">
        <ele>631</ele>
        <time>2013-03-19T17:12:43Z</time>
      </trkpt>
      <trkpt lat="44.34367" lon="2.48437">
        <ele>631</ele>
        <time>2013-03-19T17:12:47Z</time>
      </trkpt>
      <trkpt lat="44.34372" lon="2.48441">
        <ele>632</ele>
        <time>2013-03-19T17:12:52Z</time>
      </trkpt>
      <trkpt lat="44.34376" lon="2.48445">
        <ele>632</ele>
        <time>2013-03-19T17:12:56Z</time>
      </trkpt>
      <trkpt lat="44.34381" lon="2.48447">
        <ele>631</ele>
        <time>2013-03-19T17:13:00Z</time>
      </trkpt>
      <trkpt lat="44.34385" lon="2.4845">
        <ele>631</ele>
        <time>2013-03-19T17:13:04Z</time>
      </trkpt>
      <trkpt lat="44.3439" lon="2.48452">
        <ele>630</ele>
        <time>2013-03-19T17:13:08Z</time>
      </trkpt>
      <trkpt lat="44.34394" lon="2.48453">
        <ele>630</ele>
        <time>2013-03-19T17:13:12Z</time>
      </trkpt>
      <trkpt lat="44.34399" lon="2.48454">
        <ele>631</ele>
        <time>2013-03-19T17:13:16Z</time>
      </trkpt>
      <trkpt lat="44.34404" lon="2.48455">
        <ele>632</ele>
        <time>2013-03-19T17:13:20Z</time>
      </trkpt>
      <trkpt lat="44.34409" lon="2.48457">
        <ele>633</ele>
        <time>2013-03-19T17:13:24Z</time>
      </trkpt>
      <trkpt lat="44.34414" lon="2.48458">
        <ele>635</ele>
        <time>2013-03-19T17:13:28Z</time>
      </trkpt>
      <trkpt lat="44.34419" lon="2.48459">
        <ele>635</ele>
        <time>2013-03-19T17:13:32Z</time>
      </trkpt>
      <trkpt lat="44.34424" lon="2.4846">
        <ele>636</ele>
        <time>2013-03-19T17:13:37Z</time>
      </trkpt>
      <trkpt lat="44.34428" lon="2.48461">
        <ele>636</ele>
        <time>2013-03-19T17:13:41Z</time>
      </trkpt>
      <trkpt lat="44.34433" lon="2.48464">
        <ele>635</ele>
        <time>2013-03-19T17:13:45Z</time>
      </trkpt>
      <trkpt lat="44.34438" lon="2.48465">
        <ele>635</ele>
        <time>2013-03-19T17:13:51Z</time>
      </trkpt>
      <trkpt lat="44.34443" lon="2.48466">
        <ele>634</ele>
        <time>2013-03-19T17:13:57Z</time>
      </trkpt>
      <trkpt lat="44.34448" lon="2.48465">
        <ele>635</ele>
        <time>2013-03-19T17:14:01Z</time>
      </trkpt>
      <trkpt lat="44.34452" lon="2.48465">
        <ele>636</ele>
        <time>2013-03-19T17:14:05Z</time>
      </trkpt>
      <trkpt lat="44.34459" lon="2.48466">
        <ele>636</ele>
        <time>2013-03-19T17:14:10Z</time>
      </trkpt>
      <trkpt lat="44.34464" lon="2.48464">
        <ele>636</ele>
        <time>2013-03-19T17:14:14Z</time>
      </trkpt>
      <trkpt lat="44.34469" lon="2.48462">
        <ele>637</ele>
        <time>2013-03-19T17:14:19Z</time>
      </trkpt>
      <trkpt lat="44.34474" lon="2.48459">
        <ele>637</ele>
        <time>2013-03-19T17:14:24Z</time>
      </trkpt>
      <trkpt lat="44.3448" lon="2.48457">
        <ele>638</ele>
        <time>2013-03-19T17:14:29Z</time>
      </trkpt>
      <trkpt lat="44.34485" lon="2.48458">
        <ele>638</ele>
        <time>2013-03-19T17:14:34Z</time>
      </trkpt>
      <trkpt lat="44.34489" lon="2.48456">
        <ele>637</ele>
        <time>2013-03-19T17:14:39Z</time>
      </trkpt>
      <trkpt lat="44.34494" lon="2.48453">
        <ele>636</ele>
        <time>2013-03-19T17:14:43Z</time>
      </trkpt>
      <trkpt lat="44.34499" lon="2.48451">
        <ele>638</ele>
        <time>2013-03-19T17:14:47Z</time>
      </trkpt>
      <trkpt lat="44.34504" lon="2.48447">
        <ele>639</ele>
        <time>2013-03-19T17:14:52Z</time>
      </trkpt>
      <trkpt lat="44.34509" lon="2.48445">
        <ele>639</ele>
        <time>2013-03-19T17:14:56Z</time>
      </trkpt>
      <trkpt lat="44.34514" lon="2.48442">
        <ele>639</ele>
        <time>2013-03-19T17:15:02Z</time>
      </trkpt>
      <trkpt lat="44.34518" lon="2.48439">
        <ele>639</ele>
        <time>2013-03-19T17:15:06Z</time>
      </trkpt>
      <trkpt lat="44.34522" lon="2.48435">
        <ele>639</ele>
        <time>2013-03-19T17:15:10Z</time>
      </trkpt>
      <trkpt lat="44.34526" lon="2.48431">
        <ele>638</ele>
        <time>2013-03-19T17:15:14Z</time>
      </trkpt>
      <trkpt lat="44.34529" lon="2.48427">
        <ele>637</ele>
        <time>2013-03-19T17:15:18Z</time>
      </trkpt>
      <trkpt lat="44.34534" lon="2.48423">
        <ele>637</ele>
        <time>2013-03-19T17:15:22Z</time>
      </trkpt>
      <trkpt lat="44.34538" lon="2.48419">
        <ele>636</ele>
        <time>2013-03-19T17:15:26Z</time>
      </trkpt>
      <trkpt lat="44.34542" lon="2.48415">
        <ele>636</ele>
        <time>2013-03-19T17:15:30Z</time>
      </trkpt>
      <trkpt lat="44.34546" lon="2.48411">
        <ele>636</ele>
        <time>2013-03-19T17:15:34Z</time>
      </trkpt>
      <trkpt lat="44.34551" lon="2.48406">
        <ele>637</ele>
        <time>2013-03-19T17:15:39Z</time>
      </trkpt>
      <trkpt lat="44.34554" lon="2.48401">
        <ele>637</ele>
        <time>2013-03-19T17:15:43Z</time>
      </trkpt>
      <trkpt lat="44.34557" lon="2.48397">
        <ele>637</ele>
        <time>2013-03-19T17:15:47Z</time>
      </trkpt>
      <trkpt lat="44.34561" lon="2.48393">
        <ele>637</ele>
        <time>2013-03-19T17:15:51Z</time>
      </trkpt>
      <trkpt lat="44.34565" lon="2.48388">
        <ele>637</ele>
        <time>2013-03-19T17:15:55Z</time>
      </trkpt>
      <trkpt lat="44.34569" lon="2.48383">
        <ele>637</ele>
        <time>2013-03-19T17:16:00Z</time>
      </trkpt>
      <trkpt lat="44.34573" lon="2.48378">
        <ele>637</ele>
        <time>2013-03-19T17:16:05Z</time>
      </trkpt>
      <trkpt lat="44.34577" lon="2.48374">
        <ele>637</ele>
        <time>2013-03-19T17:16:09Z</time>
      </trkpt>
      <trkpt lat="44.3458" lon="2.48369">
        <ele>636</ele>
        <time>2013-03-19T17:16:13Z</time>
      </trkpt>
      <trkpt lat="44.34584" lon="2.48364">
        <ele>635</ele>
        <time>2013-03-19T17:16:17Z</time>
      </trkpt>
      <trkpt lat="44.34588" lon="2.48359">
        <ele>635</ele>
        <time>2013-03-19T17:16:22Z</time>
      </trkpt>
      <trkpt lat="44.34592" lon="2.48354">
        <ele>635</ele>
        <time>2013-03-19T17:16:26Z</time>
      </trkpt>
      <trkpt lat="44.34595" lon="2.48348">
        <ele>635</ele>
        <time>2013-03-19T17:16:31Z</time>
      </trkpt>
      <trkpt lat="44.34597" lon="2.48342">
        <ele>634</ele>
        <time>2013-03-19T17:16:35Z</time>
      </trkpt>
      <trkpt lat="44.34599" lon="2.48336">
        <ele>633</ele>
        <time>2013-03-19T17:16:39Z</time>
      </trkpt>
      <trkpt lat="44.34602" lon="2.4833">
        <ele>632</ele>
        <time>2013-03-19T17:16:43Z</time>
      </trkpt>
      <trkpt lat="44.34606" lon="2.48324">
        <ele>632</ele>
        <time>2013-03-19T17:16:47Z</time>
      </trkpt>
      <trkpt lat="44.34609" lon="2.48317">
        <ele>632</ele>
        <time>2013-03-19T17:16:52Z</time>
      </trkpt>
      <trkpt lat="44.34612" lon="2.48311">
        <ele>633</ele>
        <time>2013-03-19T17:16:56Z</time>
      </trkpt>
      <trkpt lat="44.34617" lon="2.48309">
        <ele>633</ele>
        <time>2013-03-19T17:17:01Z</time>
      </trkpt>
      <trkpt lat="44.34621" lon="2.48308">
        <ele>632</ele>
        <time>2013-03-19T17:17:07Z</time>
      </trkpt>
      <trkpt lat="44.34626" lon="2.4831">
        <ele>630</ele>
        <time>2013-03-19T17:17:12Z</time>
      </trkpt>
      <trkpt lat="44.3463" lon="2.48315">
        <ele>629</ele>
        <time>2013-03-19T17:17:17Z</time>
      </trkpt>
      <trkpt lat="44.34633" lon="2.48325">
        <ele>628</ele>
        <time>2013-03-19T17:17:23Z</time>
      </trkpt>
      <trkpt lat="44.34635" lon="2.48336">
        <ele>624</ele>
        <time>2013-03-19T17:17:31Z</time>
      </trkpt>
      <trkpt lat="44.34636" lon="2.48349">
        <ele>623</ele>
        <time>2013-03-19T17:17:37Z</time>
      </trkpt>
      <trkpt lat="44.34635" lon="2.48364">
        <ele>622</ele>
        <time>2013-03-19T17:17:43Z</time>
      </trkpt>
      <trkpt lat="44.34639" lon="2.48377">
        <ele>620</ele>
        <time>2013-03-19T17:17:54Z</time>
      </trkpt>
      <trkpt lat="44.34636" lon="2.4839">
        <ele>621</ele>
        <time>2013-03-19T17:18:01Z</time>
      </trkpt>
      <trkpt lat="44.3464" lon="2.48402">
        <ele>622</ele>
        <time>2013-03-19T17:18:11Z</time>
      </trkpt>
      <trkpt lat="44.34637" lon="2.48415">
        <ele>626</ele>
        <time>2013-03-19T17:18:19Z</time>
      </trkpt>
      <trkpt lat="44.34637" lon="2.48429">
        <ele>630</ele>
        <time>2013-03-19T17:18:25Z</time>
      </trkpt>
      <trkpt lat="44.34635" lon="2.48442">
        <ele>632</ele>
        <time>2013-03-19T17:18:33Z</time>
      </trkpt>
      <trkpt lat="44.34631" lon="2.48454">
        <ele>628</ele>
        <time>2013-03-19T17:18:43Z</time>
      </trkpt>
      <trkpt lat="44.34627" lon="2.48468">
        <ele>627</ele>
        <time>2013-03-19T17:18:51Z</time>
      </trkpt>
      <trkpt lat="44.34622" lon="2.48479">
        <ele>627</ele>
        <time>2013-03-19T17:19:00Z</time>
      </trkpt>
      <trkpt lat="44.34619" lon="2.48492">
        <ele>625</ele>
        <time>2013-03-19T17:19:09Z</time>
      </trkpt>
      <trkpt lat="44.34615" lon="2.48505">
        <ele>623</ele>
        <time>2013-03-19T17:19:16Z</time>
      </trkpt>
      <trkpt lat="44.34613" lon="2.48521">
        <ele>622</ele>
        <time>2013-03-19T17:19:26Z</time>
      </trkpt>
      <trkpt lat="44.34609" lon="2.48534">
        <ele>621</ele>
        <time>2013-03-19T17:19:35Z</time>
      </trkpt>
      <trkpt lat="44.34607" lon="2.48548">
        <ele>621</ele>
        <time>2013-03-19T17:19:43Z</time>
      </trkpt>
      <trkpt lat="44.34606" lon="2.48537">
        <ele>619</ele>
        <time>2013-03-19T17:20:10Z</time>
      </trkpt>
      <trkpt lat="44.34613" lon="2.48527">
        <ele>618</ele>
        <time>2013-03-19T17:20:18Z</time>
      </trkpt>
      <trkpt lat="44.34618" lon="2.48516">
        <ele>612</ele>
        <time>2013-03-19T17:20:25Z</time>
      </trkpt>
      <trkpt lat="44.34627" lon="2.48509">
        <ele>609</ele>
        <time>2013-03-19T17:20:33Z</time>
      </trkpt>
      <trkpt lat="44.34634" lon="2.48501">
        <ele>607</ele>
        <time>2013-03-19T17:20:42Z</time>
      </trkpt>
      <trkpt lat="44.34639" lon="2.48485">
        <ele>605</ele>
        <time>2013-03-19T17:20:54Z</time>
      </trkpt>
      <trkpt lat="44.34638" lon="2.48485">
        <ele>599</ele>
        <time>2013-03-19T17:21:19Z</time>
      </trkpt>
      <trkpt lat="44.34643" lon="2.48499">
        <ele>603</ele>
        <time>2013-03-19T17:21:37Z</time>
      </trkpt>
      <trkpt lat="44.34653" lon="2.4851">
        <ele>604</ele>
        <time>2013-03-19T17:21:48Z</time>
      </trkpt>
      <trkpt lat="44.34656" lon="2.48524">
        <ele>603</ele>
        <time>2013-03-19T17:22:00Z</time>
      </trkpt>
      <trkpt lat="44.34653" lon="2.48542">
        <ele>600</ele>
        <time>2013-03-19T17:22:13Z</time>
      </trkpt>
      <trkpt lat="44.34651" lon="2.48557">
        <ele>598</ele>
        <time>2013-03-19T17:22:25Z</time>
      </trkpt>
      <trkpt lat="44.34645" lon="2.48568">
        <ele>597</ele>
        <time>2013-03-19T17:22:30Z</time>
      </trkpt>
      <trkpt lat="44.34644" lon="2.48584">
        <ele>594</ele>
        <time>2013-03-19T17:22:39Z</time>
      </trkpt>
      <trkpt lat="44.34636" lon="2.48597">
        <ele>593</ele>
        <time>2013-03-19T17:22:49Z</time>
      </trkpt>
      <trkpt lat="44.34628" lon="2.48602">
        <ele>591</ele>
        <time>2013-03-19T17:22:58Z</time>
      </trkpt>
      <trkpt lat="44.34624" lon="2.48606">
        <ele>588</ele>
        <time>2013-03-19T17:23:36Z</time>
      </trkpt>
      <trkpt lat="44.34624" lon="2.4862">
        <ele>588</ele>
        <time>2013-03-19T17:23:40Z</time>
      </trkpt>
      <trkpt lat="44.34626" lon="2.48632">
        <ele>587</ele>
        <time>2013-03-19T17:23:48Z</time>
      </trkpt>
      <trkpt lat="44.34629" lon="2.48646">
        <ele>585</ele>
        <time>2013-03-19T17:23:57Z</time>
      </trkpt>
      <trkpt lat="44.34633" lon="2.4866">
        <ele>584</ele>
        <time>2013-03-19T17:24:05Z</time>
      </trkpt>
      <trkpt lat="44.34632" lon="2.48673">
        <ele>584</ele>
        <time>2013-03-19T17:24:15Z</time>
      </trkpt>
      <trkpt lat="44.34626" lon="2.48683">
        <ele>584</ele>
        <time>2013-03-19T17:24:22Z</time>
      </trkpt>
      <trkpt lat="44.34624" lon="2.48697">
        <ele>585</ele>
        <time>2013-03-19T17:24:31Z</time>
      </trkpt>
      <trkpt lat="44.34619" lon="2.4871">
        <ele>586</ele>
        <time>2013-03-19T17:24:38Z</time>
      </trkpt>
      <trkpt lat="44.34614" lon="2.4872">
        <ele>588</ele>
        <time>2013-03-19T17:24:44Z</time>
      </trkpt>
      <trkpt lat="44.34606" lon="2.48732">
        <ele>589</ele>
        <time>2013-03-19T17:24:51Z</time>
      </trkpt>
      <trkpt lat="44.34602" lon="2.48747">
        <ele>589</ele>
        <time>2013-03-19T17:25:00Z</time>
      </trkpt>
      <trkpt lat="44.34599" lon="2.48754">
        <ele>590</ele>
        <time>2013-03-19T17:25:05Z</time>
      </trkpt>
      <trkpt lat="44.34595" lon="2.4876">
        <ele>591</ele>
        <time>2013-03-19T17:25:09Z</time>
      </trkpt>
      <trkpt lat="44.34592" lon="2.48765">
        <ele>591</ele>
        <time>2013-03-19T17:25:12Z</time>
      </trkpt>
      <trkpt lat="44.3459" lon="2.48771">
        <ele>590</ele>
        <time>2013-03-19T17:25:15Z</time>
      </trkpt>
      <trkpt lat="44.34588" lon="2.4878">
        <ele>589</ele>
        <time>2013-03-19T17:25:21Z</time>
      </trkpt>
      <trkpt lat="44.34586" lon="2.48787">
        <ele>590</ele>
        <time>2013-03-19T17:25:26Z</time>
      </trkpt>
      <trkpt lat="44.34584" lon="2.48796">
        <ele>591</ele>
        <time>2013-03-19T17:25:32Z</time>
      </trkpt>
      <trkpt lat="44.34583" lon="2.48803">
        <ele>594</ele>
        <time>2013-03-19T17:25:37Z</time>
      </trkpt>
      <trkpt lat="44.34583" lon="2.4881">
        <ele>595</ele>
        <time>2013-03-19T17:25:42Z</time>
      </trkpt>
      <trkpt lat="44.34581" lon="2.48818">
        <ele>596</ele>
        <time>2013-03-19T17:25:46Z</time>
      </trkpt>
      <trkpt lat="44.34578" lon="2.48829">
        <ele>597</ele>
        <time>2013-03-19T17:25:52Z</time>
      </trkpt>
      <trkpt lat="44.34576" lon="2.4884">
        <ele>600</ele>
        <time>2013-03-19T17:25:58Z</time>
      </trkpt>
      <trkpt lat="44.34575" lon="2.48848">
        <ele>601</ele>
        <time>2013-03-19T17:26:03Z</time>
      </trkpt>
      <trkpt lat="44.34577" lon="2.48855">
        <ele>602</ele>
        <time>2013-03-19T17:26:07Z</time>
      </trkpt>
      <trkpt lat="44.34576" lon="2.48862">
        <ele>602</ele>
        <time>2013-03-19T17:26:10Z</time>
      </trkpt>
      <trkpt lat="44.34577" lon="2.48869">
        <ele>602</ele>
        <time>2013-03-19T17:26:14Z</time>
      </trkpt>
      <trkpt lat="44.34578" lon="2.48867">
        <ele>603</ele>
        <time>2013-03-19T17:26:28Z</time>
      </trkpt>
      <trkpt lat="44.34579" lon="2.48859">
        <ele>602</ele>
        <time>2013-03-19T17:26:33Z</time>
      </trkpt>
      <trkpt lat="44.34583" lon="2.48854">
        <ele>602</ele>
        <time>2013-03-19T17:26:37Z</time>
      </trkpt>
      <trkpt lat="44.34587" lon="2.4885">
        <ele>603</ele>
        <time>2013-03-19T17:26:41Z</time>
      </trkpt>
      <trkpt lat="44.34591" lon="2.48847">
        <ele>604</ele>
        <time>2013-03-19T17:26:46Z</time>
      </trkpt>
      <trkpt lat="44.34594" lon="2.48841">
        <ele>605</ele>
        <time>2013-03-19T17:26:51Z</time>
      </trkpt>
      <trkpt lat="44.34597" lon="2.48836">
        <ele>606</ele>
        <time>2013-03-19T17:26:54Z</time>
      </trkpt>
      <trkpt lat="44.346" lon="2.4883">
        <ele>607</ele>
        <time>2013-03-19T17:26:58Z</time>
      </trkpt>
      <trkpt lat="44.34603" lon="2.48825">
        <ele>607</ele>
        <time>2013-03-19T17:27:02Z</time>
      </trkpt>
      <trkpt lat="44.34606" lon="2.48819">
        <ele>608</ele>
        <time>2013-03-19T17:27:08Z</time>
      </trkpt>
      <trkpt lat="44.34607" lon="2.48813">
        <ele>607</ele>
        <time>2013-03-19T17:27:12Z</time>
      </trkpt>
      <trkpt lat="44.34611" lon="2.48807">
        <ele>607</ele>
        <time>2013-03-19T17:27:17Z</time>
      </trkpt>
      <trkpt lat="44.34615" lon="2.48803">
        <ele>607</ele>
        <time>2013-03-19T17:27:21Z</time>
      </trkpt>
      <trkpt lat="44.34619" lon="2.48798">
        <ele>608</ele>
        <time>2013-03-19T17:27:26Z</time>
      </trkpt>
      <trkpt lat="44.34624" lon="2.48795">
        <ele>610</ele>
        <time>2013-03-19T17:27:30Z</time>
      </trkpt>
      <trkpt lat="44.34628" lon="2.48789">
        <ele>610</ele>
        <time>2013-03-19T17:27:34Z</time>
      </trkpt>
      <trkpt lat="44.34632" lon="2.48783">
        <ele>611</ele>
        <time>2013-03-19T17:27:39Z</time>
      </trkpt>
      <trkpt lat="44.34637" lon="2.48779">
        <ele>612</ele>
        <time>2013-03-19T17:27:43Z</time>
      </trkpt>
      <trkpt lat="44.34641" lon="2.48775">
        <ele>614</ele>
        <time>2013-03-19T17:27:47Z</time>
      </trkpt>
      <trkpt lat="44.34643" lon="2.48773">
        <ele>615</ele>
        <time>2013-03-19T17:27:59Z</time>
      </trkpt>
      <trkpt lat="44.34646" lon="2.48768">
        <ele>615</ele>
        <time>2013-03-19T17:28:04Z</time>
      </trkpt>
      <trkpt lat="44.34651" lon="2.48762">
        <ele>615</ele>
        <time>2013-03-19T17:28:08Z</time>
      </trkpt>
      <trkpt lat="44.34655" lon="2.48759">
        <ele>616</ele>
        <time>2013-03-19T17:28:13Z</time>
      </trkpt>
      <trkpt lat="44.34659" lon="2.48756">
        <ele>616</ele>
        <time>2013-03-19T17:28:17Z</time>
      </trkpt>
      <trkpt lat="44.34664" lon="2.48753">
        <ele>616</ele>
        <time>2013-03-19T17:28:20Z</time>
      </trkpt>
      <trkpt lat="44.34668" lon="2.4875">
        <ele>616</ele>
        <time>2013-03-19T17:28:23Z</time>
      </trkpt>
      <trkpt lat="44.34671" lon="2.48746">
        <ele>617</ele>
        <time>2013-03-19T17:28:26Z</time>
      </trkpt>
      <trkpt lat="44.34675" lon="2.48742">
        <ele>617</ele>
        <time>2013-03-19T17:28:29Z</time>
      </trkpt>
      <trkpt lat="44.34682" lon="2.48733">
        <ele>617</ele>
        <time>2013-03-19T17:28:36Z</time>
      </trkpt>
      <trkpt lat="44.34687" lon="2.48727">
        <ele>616</ele>
        <time>2013-03-19T17:28:40Z</time>
      </trkpt>
      <trkpt lat="44.34692" lon="2.48723">
        <ele>616</ele>
        <time>2013-03-19T17:28:44Z</time>
      </trkpt>
      <trkpt lat="44.34697" lon="2.4872">
        <ele>619</ele>
        <time>2013-03-19T17:28:50Z</time>
      </trkpt>
      <trkpt lat="44.34701" lon="2.48719">
        <ele>620</ele>
        <time>2013-03-19T17:28:55Z</time>
      </trkpt>
      <trkpt lat="44.34708" lon="2.48714">
        <ele>621</ele>
        <time>2013-03-19T17:29:04Z</time>
      </trkpt>
      <trkpt lat="44.34712" lon="2.48709">
        <ele>621</ele>
        <time>2013-03-19T17:29:07Z</time>
      </trkpt>
      <trkpt lat="44.34717" lon="2.48707">
        <ele>621</ele>
        <time>2013-03-19T17:29:11Z</time>
      </trkpt>
      <trkpt lat="44.34726" lon="2.48703">
        <ele>620</ele>
        <time>2013-03-19T17:29:20Z</time>
      </trkpt>
      <trkpt lat="44.34732" lon="2.48701">
        <ele>619</ele>
        <time>2013-03-19T17:29:25Z</time>
      </trkpt>
      <trkpt lat="44.34737" lon="2.48701">
        <ele>618</ele>
        <time>2013-03-19T17:29:29Z</time>
      </trkpt>
      <trkpt lat="44.34742" lon="2.487">
        <ele>617</ele>
        <time>2013-03-19T17:29:33Z</time>
      </trkpt>
      <trkpt lat="44.34748" lon="2.48701">
        <ele>617</ele>
        <time>2013-03-19T17:29:37Z</time>
      </trkpt>
      <trkpt lat="44.34753" lon="2.48703">
        <ele>616</ele>
        <time>2013-03-19T17:29:43Z</time>
      </trkpt>
      <trkpt lat="44.34763" lon="2.48705">
        <ele>616</ele>
        <time>2013-03-19T17:29:51Z</time>
      </trkpt>
      <trkpt lat="44.34773" lon="2.48706">
        <ele>618</ele>
        <time>2013-03-19T17:30:02Z</time>
      </trkpt>
      <trkpt lat="44.34782" lon="2.48706">
        <ele>619</ele>
        <time>2013-03-19T17:30:09Z</time>
      </trkpt>
      <trkpt lat="44.34792" lon="2.48709">
        <ele>620</ele>
        <time>2013-03-19T17:30:19Z</time>
      </trkpt>
      <trkpt lat="44.34801" lon="2.48714">
        <ele>621</ele>
        <time>2013-03-19T17:30:26Z</time>
      </trkpt>
      <trkpt lat="44.34811" lon="2.48719">
        <ele>621</ele>
        <time>2013-03-19T17:30:36Z</time>
      </trkpt>
      <trkpt lat="44.34819" lon="2.48728">
        <ele>620</ele>
        <time>2013-03-19T17:30:44Z</time>
      </trkpt>
      <trkpt lat="44.34828" lon="2.48734">
        <ele>619</ele>
        <time>2013-03-19T17:30:51Z</time>
      </trkpt>
      <trkpt lat="44.34838" lon="2.48737">
        <ele>619</ele>
        <time>2013-03-19T17:30:58Z</time>
      </trkpt>
      <trkpt lat="44.34847" lon="2.48741">
        <ele>620</ele>
        <time>2013-03-19T17:31:06Z</time>
      </trkpt>
      <trkpt lat="44.34855" lon="2.48746">
        <ele>622</ele>
        <time>2013-03-19T17:31:14Z</time>
      </trkpt>
      <trkpt lat="44.34865" lon="2.48749">
        <ele>619</ele>
        <time>2013-03-19T17:31:20Z</time>
      </trkpt>
      <trkpt lat="44.34869" lon="2.48754">
        <ele>618</ele>
        <time>2013-03-19T17:31:25Z</time>
      </trkpt>
      <trkpt lat="44.34876" lon="2.48766">
        <ele>616</ele>
        <time>2013-03-19T17:31:31Z</time>
      </trkpt>
      <trkpt lat="44.34875" lon="2.48773">
        <ele>615</ele>
        <time>2013-03-19T17:31:34Z</time>
      </trkpt>
      <trkpt lat="44.34874" lon="2.48786">
        <ele>613</ele>
        <time>2013-03-19T17:31:40Z</time>
      </trkpt>
      <trkpt lat="44.34869" lon="2.48797">
        <ele>607</ele>
        <time>2013-03-19T17:31:51Z</time>
      </trkpt>
      <trkpt lat="44.3486" lon="2.488">
        <ele>604</ele>
        <time>2013-03-19T17:31:58Z</time>
      </trkpt>
      <trkpt lat="44.34852" lon="2.48804">
        <ele>600</ele>
        <time>2013-03-19T17:32:05Z</time>
      </trkpt>
      <trkpt lat="44.34844" lon="2.48811">
        <ele>597</ele>
        <time>2013-03-19T17:32:14Z</time>
      </trkpt>
      <trkpt lat="44.34836" lon="2.48818">
        <ele>595</ele>
        <time>2013-03-19T17:32:23Z</time>
      </trkpt>
      <trkpt lat="44.34834" lon="2.48827">
        <ele>596</ele>
        <time>2013-03-19T17:32:29Z</time>
      </trkpt>
      <trkpt lat="44.34836" lon="2.48825">
        <ele>599</ele>
        <time>2013-03-19T17:32:40Z</time>
      </trkpt>
      <trkpt lat="44.34842" lon="2.48824">
        <ele>600</ele>
        <time>2013-03-19T17:32:45Z</time>
      </trkpt>
      <trkpt lat="44.34848" lon="2.48821">
        <ele>601</ele>
        <time>2013-03-19T17:32:50Z</time>
      </trkpt>
      <trkpt lat="44.34853" lon="2.48818">
        <ele>603</ele>
        <time>2013-03-19T17:32:54Z</time>
      </trkpt>
      <trkpt lat="44.34857" lon="2.48816">
        <ele>604</ele>
        <time>2013-03-19T17:32:58Z</time>
      </trkpt>
      <trkpt lat="44.34866" lon="2.48811">
        <ele>606</ele>
        <time>2013-03-19T17:33:07Z</time>
      </trkpt>
      <trkpt lat="44.34872" lon="2.48811">
        <ele>607</ele>
        <time>2013-03-19T17:33:13Z</time>
      </trkpt>
      <trkpt lat="44.34878" lon="2.48811">
        <ele>608</ele>
        <time>2013-03-19T17:33:18Z</time>
      </trkpt>
      <trkpt lat="44.34887" lon="2.48807">
        <ele>610</ele>
        <time>2013-03-19T17:33:30Z</time>
      </trkpt>
      <trkpt lat="44.34897" lon="2.48807">
        <ele>611</ele>
        <time>2013-03-19T17:33:36Z</time>
      </trkpt>
      <trkpt lat="44.34907" lon="2.48806">
        <ele>614</ele>
        <time>2013-03-19T17:33:44Z</time>
      </trkpt>
      <trkpt lat="44.34915" lon="2.48815">
        <ele>615</ele>
        <time>2013-03-19T17:33:51Z</time>
      </trkpt>
      <trkpt lat="44.34908" lon="2.48825">
        <ele>617</ele>
        <time>2013-03-19T17:34:00Z</time>
      </trkpt>
      <trkpt lat="44.34903" lon="2.48827">
        <ele>617</ele>
        <time>2013-03-19T17:34:04Z</time>
      </trkpt>
      <trkpt lat="44.34893" lon="2.48838">
        <ele>617</ele>
        <time>2013-03-19T17:34:16Z</time>
      </trkpt>
      <trkpt lat="44.3489" lon="2.48844">
        <ele>617</ele>
        <time>2013-03-19T17:34:20Z</time>
      </trkpt>
      <trkpt lat="44.34886" lon="2.48848">
        <ele>616</ele>
        <time>2013-03-19T17:34:25Z</time>
      </trkpt>
      <trkpt lat="44.34882" lon="2.48853">
        <ele>614</ele>
        <time>2013-03-19T17:34:30Z</time>
      </trkpt>
      <trkpt lat="44.34877" lon="2.48857">
        <ele>615</ele>
        <time>2013-03-19T17:34:35Z</time>
      </trkpt>
      <trkpt lat="44.34873" lon="2.48859">
        <ele>614</ele>
        <time>2013-03-19T17:34:39Z</time>
      </trkpt>
      <trkpt lat="44.3487" lon="2.48863">
        <ele>611</ele>
        <time>2013-03-19T17:34:49Z</time>
      </trkpt>
      <trkpt lat="44.34859" lon="2.48862">
        <ele>612</ele>
        <time>2013-03-19T17:35:19Z</time>
      </trkpt>
      <trkpt lat="44.34859" lon="2.48864">
        <ele>615</ele>
        <time>2013-03-19T17:36:29Z</time>
      </trkpt>
      <trkpt lat="44.3486" lon="2.4887">
        <ele>616</ele>
        <time>2013-03-19T17:37:30Z</time>
      </trkpt>
      <trkpt lat="44.34855" lon="2.48869">
        <ele>616</ele>
        <time>2013-03-19T17:38:45Z</time>
      </trkpt>
      <trkpt lat="44.34856" lon="2.48866">
        <ele>617</ele>
        <time>2013-03-19T17:39:17Z</time>
      </trkpt>
      <trkpt lat="44.34857" lon="2.48862">
        <ele>617</ele>
        <time>2013-03-19T17:40:28Z</time>
      </trkpt>
      <trkpt lat="44.34862" lon="2.4887">
        <ele>617</ele>
        <time>2013-03-19T17:41:19Z</time>
      </trkpt>
      <trkpt lat="44.34848" lon="2.48864">
        <ele>617</ele>
        <time>2013-03-19T17:42:02Z</time>
      </trkpt>
      <trkpt lat="44.34855" lon="2.48863">
        <ele>617</ele>
        <time>2013-03-19T17:42:25Z</time>
      </trkpt>
      <trkpt lat="44.34856" lon="2.48869">
        <ele>617</ele>
        <time>2013-03-19T17:42:39Z</time>
      </trkpt>
      <trkpt lat="44.3486" lon="2.4887">
        <ele>617</ele>
        <time>2013-03-19T17:43:30Z</time>
      </trkpt>
      <trkpt lat="44.34861" lon="2.48868">
        <ele>617</ele>
        <time>2013-03-19T17:45:04Z</time>
      </trkpt>
      <trkpt lat="44.3486" lon="2.48867">
        <ele>617</ele>
        <time>2013-03-19T17:46:13Z</time>
      </trkpt>
      <trkpt lat="44.3486" lon="2.48863">
        <ele>619</ele>
        <time>2013-03-19T17:48:20Z</time>
      </trkpt>
      <trkpt lat="44.3487" lon="2.48857">
        <ele>619</ele>
        <time>2013-03-19T17:48:38Z</time>
      </trkpt>
      <trkpt lat="44.34876" lon="2.48854">
        <ele>619</ele>
        <time>2013-03-19T17:48:49Z</time>
      </trkpt>
      <trkpt lat="44.34876" lon="2.4886">
        <ele>620</ele>
        <time>2013-03-19T17:48:54Z</time>
      </trkpt>
      <trkpt lat="44.34872" lon="2.48872">
        <ele>620</ele>
        <time>2013-03-19T17:49:01Z</time>
      </trkpt>
      <trkpt lat="44.3487" lon="2.48878">
        <ele>619</ele>
        <time>2013-03-19T17:49:05Z</time>
      </trkpt>
      <trkpt lat="44.34867" lon="2.48883">
        <ele>619</ele>
        <time>2013-03-19T17:49:09Z</time>
      </trkpt>
      <trkpt lat="44.34863" lon="2.48888">
        <ele>619</ele>
        <time>2013-03-19T17:49:13Z</time>
      </trkpt>
      <trkpt lat="44.3486" lon="2.48894">
        <ele>620</ele>
        <time>2013-03-19T17:49:18Z</time>
      </trkpt>
      <trkpt lat="44.34854" lon="2.48905">
        <ele>622</ele>
        <time>2013-03-19T17:49:26Z</time>
      </trkpt>
      <trkpt lat="44.34852" lon="2.48912">
        <ele>622</ele>
        <time>2013-03-19T17:49:30Z</time>
      </trkpt>
      <trkpt lat="44.34844" lon="2.48921">
        <ele>624</ele>
        <time>2013-03-19T17:49:38Z</time>
      </trkpt>
      <trkpt lat="44.3484" lon="2.48918">
        <ele>623</ele>
        <time>2013-03-19T17:49:42Z</time>
      </trkpt>
      <trkpt lat="44.34838" lon="2.4892">
        <ele>621</ele>
        <time>2013-03-19T17:49:59Z</time>
      </trkpt>
      <trkpt lat="44.34837" lon="2.48928">
        <ele>619</ele>
        <time>2013-03-19T17:50:30Z</time>
      </trkpt>
      <trkpt lat="44.34837" lon="2.48935">
        <ele>618</ele>
        <time>2013-03-19T17:50:34Z</time>
      </trkpt>
      <trkpt lat="44.34836" lon="2.48942">
        <ele>618</ele>
        <time>2013-03-19T17:50:39Z</time>
      </trkpt>
      <trkpt lat="44.34836" lon="2.48949">
        <ele>618</ele>
        <time>2013-03-19T17:50:44Z</time>
      </trkpt>
      <trkpt lat="44.34836" lon="2.48957">
        <ele>619</ele>
        <time>2013-03-19T17:50:50Z</time>
      </trkpt>
      <trkpt lat="44.34836" lon="2.48964">
        <ele>619</ele>
        <time>2013-03-19T17:50:55Z</time>
      </trkpt>
      <trkpt lat="44.34835" lon="2.4897">
        <ele>621</ele>
        <time>2013-03-19T17:51:01Z</time>
      </trkpt>
      <trkpt lat="44.34836" lon="2.48977">
        <ele>622</ele>
        <time>2013-03-19T17:51:05Z</time>
      </trkpt>
      <trkpt lat="44.34836" lon="2.48984">
        <ele>622</ele>
        <time>2013-03-19T17:51:09Z</time>
      </trkpt>
      <trkpt lat="44.34837" lon="2.48991">
        <ele>623</ele>
        <time>2013-03-19T17:51:15Z</time>
      </trkpt>
      <trkpt lat="44.34838" lon="2.48998">
        <ele>622</ele>
        <time>2013-03-19T17:51:20Z</time>
      </trkpt>
      <trkpt lat="44.34839" lon="2.49004">
        <ele>622</ele>
        <time>2013-03-19T17:51:25Z</time>
      </trkpt>
      <trkpt lat="44.34841" lon="2.49011">
        <ele>623</ele>
        <time>2013-03-19T17:51:32Z</time>
      </trkpt>
      <trkpt lat="44.34844" lon="2.49017">
        <ele>624</ele>
        <time>2013-03-19T17:51:37Z</time>
      </trkpt>
      <trkpt lat="44.34846" lon="2.49027">
        <ele>624</ele>
        <time>2013-03-19T17:51:48Z</time>
      </trkpt>
      <trkpt lat="44.3485" lon="2.49032">
        <ele>624</ele>
        <time>2013-03-19T17:51:54Z</time>
      </trkpt>
      <trkpt lat="44.34854" lon="2.49036">
        <ele>623</ele>
        <time>2013-03-19T17:52:00Z</time>
      </trkpt>
      <trkpt lat="44.34858" lon="2.49038">
        <ele>623</ele>
        <time>2013-03-19T17:52:05Z</time>
      </trkpt>
      <trkpt lat="44.34864" lon="2.49041">
        <ele>623</ele>
        <time>2013-03-19T17:52:11Z</time>
      </trkpt>
      <trkpt lat="44.34869" lon="2.49041">
        <ele>623</ele>
        <time>2013-03-19T17:52:15Z</time>
      </trkpt>
      <trkpt lat="44.34874" lon="2.4904">
        <ele>624</ele>
        <time>2013-03-19T17:52:19Z</time>
      </trkpt>
      <trkpt lat="44.34879" lon="2.49042">
        <ele>626</ele>
        <time>2013-03-19T17:52:23Z</time>
      </trkpt>
      <trkpt lat="44.34884" lon="2.49044">
        <ele>629</ele>
        <time>2013-03-19T17:52:31Z</time>
      </trkpt>
      <trkpt lat="44.34887" lon="2.4905">
        <ele>630</ele>
        <time>2013-03-19T17:52:37Z</time>
      </trkpt>
      <trkpt lat="44.3489" lon="2.49055">
        <ele>631</ele>
        <time>2013-03-19T17:52:42Z</time>
      </trkpt>
      <trkpt lat="44.34893" lon="2.49061">
        <ele>632</ele>
        <time>2013-03-19T17:52:48Z</time>
      </trkpt>
      <trkpt lat="44.3489" lon="2.49057">
        <ele>634</ele>
        <time>2013-03-19T17:53:05Z</time>
      </trkpt>
      <trkpt lat="44.3489" lon="2.4905">
        <ele>634</ele>
        <time>2013-03-19T17:53:09Z</time>
      </trkpt>
      <trkpt lat="44.3489" lon="2.49043">
        <ele>633</ele>
        <time>2013-03-19T17:53:13Z</time>
      </trkpt>
      <trkpt lat="44.34891" lon="2.49037">
        <ele>634</ele>
        <time>2013-03-19T17:53:19Z</time>
      </trkpt>
      <trkpt lat="44.34886" lon="2.49038">
        <ele>634</ele>
        <time>2013-03-19T17:53:28Z</time>
      </trkpt>
      <trkpt lat="44.34881" lon="2.49039">
        <ele>634</ele>
        <time>2013-03-19T17:53:36Z</time>
      </trkpt>
      <trkpt lat="44.34876" lon="2.49039">
        <ele>631</ele>
        <time>2013-03-19T17:54:00Z</time>
      </trkpt>
      <trkpt lat="44.34871" lon="2.49037">
        <ele>630</ele>
        <time>2013-03-19T17:54:04Z</time>
      </trkpt>
      <trkpt lat="44.34864" lon="2.49034">
        <ele>630</ele>
        <time>2013-03-19T17:54:09Z</time>
      </trkpt>
      <trkpt lat="44.3486" lon="2.49031">
        <ele>629</ele>
        <time>2013-03-19T17:54:13Z</time>
      </trkpt>
      <trkpt lat="44.34855" lon="2.4903">
        <ele>629</ele>
        <time>2013-03-19T17:54:18Z</time>
      </trkpt>
      <trkpt lat="44.3485" lon="2.4903">
        <ele>629</ele>
        <time>2013-03-19T17:54:22Z</time>
      </trkpt>
      <trkpt lat="44.34846" lon="2.49032">
        <ele>628</ele>
        <time>2013-03-19T17:54:30Z</time>
      </trkpt>
      <trkpt lat="44.34843" lon="2.49033">
        <ele>629</ele>
        <time>2013-03-19T17:54:46Z</time>
      </trkpt>
      <trkpt lat="44.34844" lon="2.49033">
        <ele>629</ele>
        <time>2013-03-19T17:59:35Z</time>
      </trkpt>
      <trkpt lat="44.34847" lon="2.49029">
        <ele>629</ele>
        <time>2013-03-19T17:59:41Z</time>
      </trkpt>
      <trkpt lat="44.34847" lon="2.49022">
        <ele>629</ele>
        <time>2013-03-19T17:59:47Z</time>
      </trkpt>
      <trkpt lat="44.34847" lon="2.49015">
        <ele>628</ele>
        <time>2013-03-19T17:59:52Z</time>
      </trkpt>
      <trkpt lat="44.34847" lon="2.49008">
        <ele>628</ele>
        <time>2013-03-19T17:59:57Z</time>
      </trkpt>
      <trkpt lat="44.34846" lon="2.49001">
        <ele>628</ele>
        <time>2013-03-19T18:00:03Z</time>
      </trkpt>
      <trkpt lat="44.34846" lon="2.48993">
        <ele>627</ele>
        <time>2013-03-19T18:00:07Z</time>
      </trkpt>
      <trkpt lat="44.34844" lon="2.48987">
        <ele>626</ele>
        <time>2013-03-19T18:00:12Z</time>
      </trkpt>
      <trkpt lat="44.34844" lon="2.4898">
        <ele>627</ele>
        <time>2013-03-19T18:00:17Z</time>
      </trkpt>
      <trkpt lat="44.34844" lon="2.48973">
        <ele>628</ele>
        <time>2013-03-19T18:00:23Z</time>
      </trkpt>
      <trkpt lat="44.34843" lon="2.48966">
        <ele>628</ele>
        <time>2013-03-19T18:00:29Z</time>
      </trkpt>
      <trkpt lat="44.34842" lon="2.48959">
        <ele>629</ele>
        <time>2013-03-19T18:00:34Z</time>
      </trkpt>
    </trkseg>
  </trk>
</gpx>